<?xml version="1.0" encoding="UTF-8" standalone="no" ?>
<gpx xmlns="http://www.topografix.com/GPX/1/1" xmlns:xsi="http://www.w3.org/2001/XMLSchema-instance" xsi:schemaLocation="http://www.topografix.com/GPX/1/1 http://www.topografix.com/GPX/1/1/gpx.xsd" version="1.1" creator="VisuGPX - https://www.visugpx.com">
  <metadata>
    <name>rando Floirac n°4</name>
    <desc><![CDATA[Rando pedestre]]></desc>
  </metadata>
  <trk>
    <name><![CDATA[Tracé 20 mars 2016 4:09:28 PM]]></name>
    <trkseg>
      <trkpt lat="44.84073" lon="-0.52245">
        <ele>1</ele>
        <time>2016-03-20T15:09:28Z</time>
      </trkpt>
      <trkpt lat="44.84073" lon="-0.52245">
        <ele>1</ele>
        <time>2016-03-20T15:09:32Z</time>
      </trkpt>
      <trkpt lat="44.84074" lon="-0.52285">
        <ele>3</ele>
        <time>2016-03-20T15:09:37Z</time>
      </trkpt>
      <trkpt lat="44.8408" lon="-0.52276">
        <ele>3</ele>
        <time>2016-03-20T15:09:41Z</time>
      </trkpt>
      <trkpt lat="44.84076" lon="-0.52268">
        <ele>3</ele>
        <time>2016-03-20T15:11:03Z</time>
      </trkpt>
      <trkpt lat="44.84064" lon="-0.52272">
        <ele>3</ele>
        <time>2016-03-20T15:11:08Z</time>
      </trkpt>
      <trkpt lat="44.84056" lon="-0.52269">
        <ele>2</ele>
        <time>2016-03-20T15:11:22Z</time>
      </trkpt>
      <trkpt lat="44.84048" lon="-0.52264">
        <ele>2</ele>
        <time>2016-03-20T15:11:38Z</time>
      </trkpt>
      <trkpt lat="44.8404" lon="-0.52261">
        <ele>2</ele>
        <time>2016-03-20T15:11:51Z</time>
      </trkpt>
      <trkpt lat="44.84032" lon="-0.52255">
        <ele>2</ele>
        <time>2016-03-20T15:12:09Z</time>
      </trkpt>
      <trkpt lat="44.84031" lon="-0.52255">
        <ele>2</ele>
        <time>2016-03-20T15:12:53Z</time>
      </trkpt>
      <trkpt lat="44.84032" lon="-0.5224">
        <ele>2</ele>
        <time>2016-03-20T15:12:58Z</time>
      </trkpt>
      <trkpt lat="44.84036" lon="-0.52229">
        <ele>2</ele>
        <time>2016-03-20T15:13:11Z</time>
      </trkpt>
      <trkpt lat="44.84036" lon="-0.52218">
        <ele>2</ele>
        <time>2016-03-20T15:13:22Z</time>
      </trkpt>
      <trkpt lat="44.84035" lon="-0.52212">
        <ele>2</ele>
        <time>2016-03-20T15:13:38Z</time>
      </trkpt>
      <trkpt lat="44.8403" lon="-0.52194">
        <ele>2</ele>
        <time>2016-03-20T15:13:42Z</time>
      </trkpt>
      <trkpt lat="44.84028" lon="-0.52181">
        <ele>1</ele>
        <time>2016-03-20T15:13:47Z</time>
      </trkpt>
      <trkpt lat="44.84021" lon="-0.52172">
        <ele>67.3</ele>
        <time>2016-03-20T15:13:56Z</time>
      </trkpt>
      <trkpt lat="44.84015" lon="-0.52168">
        <ele>-1</ele>
        <time>2016-03-20T15:14:22Z</time>
      </trkpt>
      <trkpt lat="44.84006" lon="-0.5217">
        <ele>-2</ele>
        <time>2016-03-20T15:14:27Z</time>
      </trkpt>
      <trkpt lat="44.84005" lon="-0.52158">
        <ele>-3</ele>
        <time>2016-03-20T15:14:54Z</time>
      </trkpt>
      <trkpt lat="44.84003" lon="-0.52146">
        <ele>-3</ele>
        <time>2016-03-20T15:15:06Z</time>
      </trkpt>
      <trkpt lat="44.84004" lon="-0.52136">
        <ele>-3</ele>
        <time>2016-03-20T15:15:21Z</time>
      </trkpt>
      <trkpt lat="44.84008" lon="-0.52126">
        <ele>-2</ele>
        <time>2016-03-20T15:15:31Z</time>
      </trkpt>
      <trkpt lat="44.8401" lon="-0.52114">
        <ele>1</ele>
        <time>2016-03-20T15:15:43Z</time>
      </trkpt>
      <trkpt lat="44.84009" lon="-0.52102">
        <ele>5</ele>
        <time>2016-03-20T15:15:55Z</time>
      </trkpt>
      <trkpt lat="44.8401" lon="-0.5209">
        <ele>7</ele>
        <time>2016-03-20T15:16:06Z</time>
      </trkpt>
      <trkpt lat="44.84013" lon="-0.52078">
        <ele>7</ele>
        <time>2016-03-20T15:16:16Z</time>
      </trkpt>
      <trkpt lat="44.84014" lon="-0.52066">
        <ele>11</ele>
        <time>2016-03-20T15:16:27Z</time>
      </trkpt>
      <trkpt lat="44.84018" lon="-0.52055">
        <ele>11</ele>
        <time>2016-03-20T15:16:39Z</time>
      </trkpt>
      <trkpt lat="44.84022" lon="-0.52044">
        <ele>10</ele>
        <time>2016-03-20T15:16:51Z</time>
      </trkpt>
      <trkpt lat="44.84026" lon="-0.52034">
        <ele>10</ele>
        <time>2016-03-20T15:17:04Z</time>
      </trkpt>
      <trkpt lat="44.84026" lon="-0.52023">
        <ele>14</ele>
        <time>2016-03-20T15:17:10Z</time>
      </trkpt>
      <trkpt lat="44.84027" lon="-0.52011">
        <ele>18</ele>
        <time>2016-03-20T15:17:26Z</time>
      </trkpt>
      <trkpt lat="44.84029" lon="-0.51999">
        <ele>16</ele>
        <time>2016-03-20T15:17:42Z</time>
      </trkpt>
      <trkpt lat="44.84029" lon="-0.51987">
        <ele>18</ele>
        <time>2016-03-20T15:17:52Z</time>
      </trkpt>
      <trkpt lat="44.84029" lon="-0.51975">
        <ele>20</ele>
        <time>2016-03-20T15:18:01Z</time>
      </trkpt>
      <trkpt lat="44.84029" lon="-0.51963">
        <ele>19</ele>
        <time>2016-03-20T15:18:10Z</time>
      </trkpt>
      <trkpt lat="44.84028" lon="-0.51951">
        <ele>18</ele>
        <time>2016-03-20T15:18:18Z</time>
      </trkpt>
      <trkpt lat="44.84028" lon="-0.5194">
        <ele>18</ele>
        <time>2016-03-20T15:18:27Z</time>
      </trkpt>
      <trkpt lat="44.84027" lon="-0.51928">
        <ele>17</ele>
        <time>2016-03-20T15:18:35Z</time>
      </trkpt>
      <trkpt lat="44.84027" lon="-0.51916">
        <ele>14</ele>
        <time>2016-03-20T15:18:44Z</time>
      </trkpt>
      <trkpt lat="44.84026" lon="-0.51903">
        <ele>13</ele>
        <time>2016-03-20T15:18:56Z</time>
      </trkpt>
      <trkpt lat="44.84024" lon="-0.51892">
        <ele>12</ele>
        <time>2016-03-20T15:19:06Z</time>
      </trkpt>
      <trkpt lat="44.84023" lon="-0.51881">
        <ele>14</ele>
        <time>2016-03-20T15:19:15Z</time>
      </trkpt>
      <trkpt lat="44.84022" lon="-0.51869">
        <ele>17</ele>
        <time>2016-03-20T15:19:24Z</time>
      </trkpt>
      <trkpt lat="44.8402" lon="-0.51857">
        <ele>18</ele>
        <time>2016-03-20T15:19:31Z</time>
      </trkpt>
      <trkpt lat="44.84018" lon="-0.51845">
        <ele>16</ele>
        <time>2016-03-20T15:19:40Z</time>
      </trkpt>
      <trkpt lat="44.84017" lon="-0.51833">
        <ele>15</ele>
        <time>2016-03-20T15:19:50Z</time>
      </trkpt>
      <trkpt lat="44.84015" lon="-0.51821">
        <ele>13</ele>
        <time>2016-03-20T15:20:01Z</time>
      </trkpt>
      <trkpt lat="44.84018" lon="-0.5181">
        <ele>13</ele>
        <time>2016-03-20T15:20:15Z</time>
      </trkpt>
      <trkpt lat="44.84019" lon="-0.518">
        <ele>13</ele>
        <time>2016-03-20T15:20:24Z</time>
      </trkpt>
      <trkpt lat="44.84016" lon="-0.51788">
        <ele>12</ele>
        <time>2016-03-20T15:20:34Z</time>
      </trkpt>
      <trkpt lat="44.84013" lon="-0.51777">
        <ele>13</ele>
        <time>2016-03-20T15:20:47Z</time>
      </trkpt>
      <trkpt lat="44.84011" lon="-0.51765">
        <ele>13</ele>
        <time>2016-03-20T15:20:57Z</time>
      </trkpt>
      <trkpt lat="44.84011" lon="-0.51754">
        <ele>12</ele>
        <time>2016-03-20T15:21:04Z</time>
      </trkpt>
      <trkpt lat="44.84011" lon="-0.51742">
        <ele>10</ele>
        <time>2016-03-20T15:21:13Z</time>
      </trkpt>
      <trkpt lat="44.84011" lon="-0.5173">
        <ele>10</ele>
        <time>2016-03-20T15:21:23Z</time>
      </trkpt>
      <trkpt lat="44.84012" lon="-0.51718">
        <ele>12</ele>
        <time>2016-03-20T15:21:33Z</time>
      </trkpt>
      <trkpt lat="44.84013" lon="-0.51707">
        <ele>13</ele>
        <time>2016-03-20T15:21:40Z</time>
      </trkpt>
      <trkpt lat="44.84016" lon="-0.51697">
        <ele>10</ele>
        <time>2016-03-20T15:21:52Z</time>
      </trkpt>
      <trkpt lat="44.84018" lon="-0.51685">
        <ele>7</ele>
        <time>2016-03-20T15:22:05Z</time>
      </trkpt>
      <trkpt lat="44.84023" lon="-0.51674">
        <ele>7</ele>
        <time>2016-03-20T15:22:17Z</time>
      </trkpt>
      <trkpt lat="44.84027" lon="-0.51664">
        <ele>6</ele>
        <time>2016-03-20T15:22:27Z</time>
      </trkpt>
      <trkpt lat="44.84029" lon="-0.51652">
        <ele>1</ele>
        <time>2016-03-20T15:22:35Z</time>
      </trkpt>
      <trkpt lat="44.8403" lon="-0.51641">
        <ele>-3</ele>
        <time>2016-03-20T15:22:42Z</time>
      </trkpt>
      <trkpt lat="44.84032" lon="-0.51629">
        <ele>-4</ele>
        <time>2016-03-20T15:22:53Z</time>
      </trkpt>
      <trkpt lat="44.84034" lon="-0.51617">
        <ele>-5</ele>
        <time>2016-03-20T15:23:03Z</time>
      </trkpt>
      <trkpt lat="44.84038" lon="-0.51607">
        <ele>-4</ele>
        <time>2016-03-20T15:23:14Z</time>
      </trkpt>
      <trkpt lat="44.84046" lon="-0.51603">
        <ele>-4</ele>
        <time>2016-03-20T15:23:26Z</time>
      </trkpt>
      <trkpt lat="44.84054" lon="-0.516">
        <ele>-5</ele>
        <time>2016-03-20T15:23:36Z</time>
      </trkpt>
      <trkpt lat="44.84063" lon="-0.516">
        <ele>-4</ele>
        <time>2016-03-20T15:23:46Z</time>
      </trkpt>
      <trkpt lat="44.84068" lon="-0.51591">
        <ele>-4</ele>
        <time>2016-03-20T15:24:15Z</time>
      </trkpt>
      <trkpt lat="44.84076" lon="-0.5159">
        <ele>-2</ele>
        <time>2016-03-20T15:24:25Z</time>
      </trkpt>
      <trkpt lat="44.84084" lon="-0.5159">
        <ele>66.8</ele>
        <time>2016-03-20T15:24:32Z</time>
      </trkpt>
      <trkpt lat="44.84093" lon="-0.51588">
        <ele>66.9</ele>
        <time>2016-03-20T15:24:40Z</time>
      </trkpt>
      <trkpt lat="44.84101" lon="-0.51586">
        <ele>3</ele>
        <time>2016-03-20T15:24:47Z</time>
      </trkpt>
      <trkpt lat="44.84108" lon="-0.51581">
        <ele>6</ele>
        <time>2016-03-20T15:24:54Z</time>
      </trkpt>
      <trkpt lat="44.84117" lon="-0.51578">
        <ele>7</ele>
        <time>2016-03-20T15:25:05Z</time>
      </trkpt>
      <trkpt lat="44.84125" lon="-0.51573">
        <ele>6</ele>
        <time>2016-03-20T15:25:15Z</time>
      </trkpt>
      <trkpt lat="44.84132" lon="-0.51568">
        <ele>4</ele>
        <time>2016-03-20T15:25:26Z</time>
      </trkpt>
      <trkpt lat="44.84141" lon="-0.51566">
        <ele>5</ele>
        <time>2016-03-20T15:25:34Z</time>
      </trkpt>
      <trkpt lat="44.84146" lon="-0.51557">
        <ele>6</ele>
        <time>2016-03-20T15:25:45Z</time>
      </trkpt>
      <trkpt lat="44.84153" lon="-0.51549">
        <ele>8</ele>
        <time>2016-03-20T15:25:53Z</time>
      </trkpt>
      <trkpt lat="44.8416" lon="-0.51542">
        <ele>6</ele>
        <time>2016-03-20T15:26:05Z</time>
      </trkpt>
      <trkpt lat="44.84165" lon="-0.51531">
        <ele>7</ele>
        <time>2016-03-20T15:26:44Z</time>
      </trkpt>
      <trkpt lat="44.84172" lon="-0.51526">
        <ele>12</ele>
        <time>2016-03-20T15:26:54Z</time>
      </trkpt>
      <trkpt lat="44.84179" lon="-0.51529">
        <ele>10</ele>
        <time>2016-03-20T15:27:01Z</time>
      </trkpt>
      <trkpt lat="44.84187" lon="-0.51533">
        <ele>11</ele>
        <time>2016-03-20T15:27:06Z</time>
      </trkpt>
      <trkpt lat="44.84197" lon="-0.51536">
        <ele>14</ele>
        <time>2016-03-20T15:27:11Z</time>
      </trkpt>
      <trkpt lat="44.84204" lon="-0.5154">
        <ele>15</ele>
        <time>2016-03-20T15:27:15Z</time>
      </trkpt>
      <trkpt lat="44.84212" lon="-0.51543">
        <ele>17</ele>
        <time>2016-03-20T15:27:20Z</time>
      </trkpt>
      <trkpt lat="44.8422" lon="-0.51549">
        <ele>17</ele>
        <time>2016-03-20T15:27:25Z</time>
      </trkpt>
      <trkpt lat="44.84228" lon="-0.51554">
        <ele>17</ele>
        <time>2016-03-20T15:27:31Z</time>
      </trkpt>
      <trkpt lat="44.84235" lon="-0.51561">
        <ele>13</ele>
        <time>2016-03-20T15:27:39Z</time>
      </trkpt>
      <trkpt lat="44.84241" lon="-0.51569">
        <ele>12</ele>
        <time>2016-03-20T15:27:50Z</time>
      </trkpt>
      <trkpt lat="44.84248" lon="-0.51577">
        <ele>10</ele>
        <time>2016-03-20T15:28:00Z</time>
      </trkpt>
      <trkpt lat="44.84255" lon="-0.51579">
        <ele>8</ele>
        <time>2016-03-20T15:28:09Z</time>
      </trkpt>
      <trkpt lat="44.84262" lon="-0.51578">
        <ele>9</ele>
        <time>2016-03-20T15:28:47Z</time>
      </trkpt>
      <trkpt lat="44.84269" lon="-0.51572">
        <ele>5</ele>
        <time>2016-03-20T15:28:56Z</time>
      </trkpt>
      <trkpt lat="44.84269" lon="-0.5155">
        <ele>10</ele>
        <time>2016-03-20T15:29:00Z</time>
      </trkpt>
      <trkpt lat="44.84271" lon="-0.51539">
        <ele>9</ele>
        <time>2016-03-20T15:29:19Z</time>
      </trkpt>
      <trkpt lat="44.84277" lon="-0.5153">
        <ele>6</ele>
        <time>2016-03-20T15:29:33Z</time>
      </trkpt>
      <trkpt lat="44.84283" lon="-0.51522">
        <ele>4</ele>
        <time>2016-03-20T15:29:47Z</time>
      </trkpt>
      <trkpt lat="44.84287" lon="-0.51512">
        <ele>4</ele>
        <time>2016-03-20T15:29:59Z</time>
      </trkpt>
      <trkpt lat="44.84291" lon="-0.51501">
        <ele>1</ele>
        <time>2016-03-20T15:30:12Z</time>
      </trkpt>
      <trkpt lat="44.84292" lon="-0.51489">
        <ele>3</ele>
        <time>2016-03-20T15:30:24Z</time>
      </trkpt>
      <trkpt lat="44.84299" lon="-0.51482">
        <ele>7</ele>
        <time>2016-03-20T15:30:33Z</time>
      </trkpt>
      <trkpt lat="44.84306" lon="-0.51473">
        <ele>9</ele>
        <time>2016-03-20T15:30:43Z</time>
      </trkpt>
      <trkpt lat="44.84311" lon="-0.51464">
        <ele>11</ele>
        <time>2016-03-20T15:30:54Z</time>
      </trkpt>
      <trkpt lat="44.84317" lon="-0.51454">
        <ele>11</ele>
        <time>2016-03-20T15:31:08Z</time>
      </trkpt>
      <trkpt lat="44.84321" lon="-0.51444">
        <ele>6</ele>
        <time>2016-03-20T15:31:19Z</time>
      </trkpt>
      <trkpt lat="44.84324" lon="-0.51433">
        <ele>6</ele>
        <time>2016-03-20T15:31:29Z</time>
      </trkpt>
      <trkpt lat="44.84327" lon="-0.51421">
        <ele>7</ele>
        <time>2016-03-20T15:31:36Z</time>
      </trkpt>
      <trkpt lat="44.84326" lon="-0.5141">
        <ele>11</ele>
        <time>2016-03-20T15:31:46Z</time>
      </trkpt>
      <trkpt lat="44.84327" lon="-0.51398">
        <ele>12</ele>
        <time>2016-03-20T15:31:57Z</time>
      </trkpt>
      <trkpt lat="44.84326" lon="-0.51386">
        <ele>13</ele>
        <time>2016-03-20T15:32:06Z</time>
      </trkpt>
      <trkpt lat="44.84326" lon="-0.51375">
        <ele>13</ele>
        <time>2016-03-20T15:32:17Z</time>
      </trkpt>
      <trkpt lat="44.84325" lon="-0.51363">
        <ele>13</ele>
        <time>2016-03-20T15:32:31Z</time>
      </trkpt>
      <trkpt lat="44.84326" lon="-0.51351">
        <ele>16</ele>
        <time>2016-03-20T15:32:41Z</time>
      </trkpt>
      <trkpt lat="44.84325" lon="-0.51339">
        <ele>16</ele>
        <time>2016-03-20T15:32:49Z</time>
      </trkpt>
      <trkpt lat="44.84326" lon="-0.51327">
        <ele>17</ele>
        <time>2016-03-20T15:33:01Z</time>
      </trkpt>
      <trkpt lat="44.84329" lon="-0.51315">
        <ele>15</ele>
        <time>2016-03-20T15:33:11Z</time>
      </trkpt>
      <trkpt lat="44.84329" lon="-0.51303">
        <ele>12</ele>
        <time>2016-03-20T15:33:23Z</time>
      </trkpt>
      <trkpt lat="44.84329" lon="-0.51291">
        <ele>10</ele>
        <time>2016-03-20T15:33:33Z</time>
      </trkpt>
      <trkpt lat="44.84328" lon="-0.51279">
        <ele>10</ele>
        <time>2016-03-20T15:33:43Z</time>
      </trkpt>
      <trkpt lat="44.84326" lon="-0.51267">
        <ele>10</ele>
        <time>2016-03-20T15:33:53Z</time>
      </trkpt>
      <trkpt lat="44.84326" lon="-0.51257">
        <ele>9</ele>
        <time>2016-03-20T15:34:04Z</time>
      </trkpt>
      <trkpt lat="44.84324" lon="-0.51244">
        <ele>12</ele>
        <time>2016-03-20T15:34:09Z</time>
      </trkpt>
      <trkpt lat="44.84321" lon="-0.51233">
        <ele>12</ele>
        <time>2016-03-20T15:34:18Z</time>
      </trkpt>
      <trkpt lat="44.84321" lon="-0.51222">
        <ele>8</ele>
        <time>2016-03-20T15:34:27Z</time>
      </trkpt>
      <trkpt lat="44.84319" lon="-0.51211">
        <ele>6</ele>
        <time>2016-03-20T15:34:34Z</time>
      </trkpt>
      <trkpt lat="44.84314" lon="-0.512">
        <ele>7</ele>
        <time>2016-03-20T15:34:44Z</time>
      </trkpt>
      <trkpt lat="44.84313" lon="-0.51188">
        <ele>8</ele>
        <time>2016-03-20T15:34:54Z</time>
      </trkpt>
      <trkpt lat="44.84311" lon="-0.51176">
        <ele>8</ele>
        <time>2016-03-20T15:35:01Z</time>
      </trkpt>
      <trkpt lat="44.8431" lon="-0.51165">
        <ele>9</ele>
        <time>2016-03-20T15:35:08Z</time>
      </trkpt>
      <trkpt lat="44.84308" lon="-0.51152">
        <ele>9</ele>
        <time>2016-03-20T15:35:21Z</time>
      </trkpt>
      <trkpt lat="44.84307" lon="-0.51144">
        <ele>6</ele>
        <time>2016-03-20T15:35:25Z</time>
      </trkpt>
      <trkpt lat="44.8431" lon="-0.51132">
        <ele>9</ele>
        <time>2016-03-20T15:35:30Z</time>
      </trkpt>
      <trkpt lat="44.8431" lon="-0.51129">
        <ele>10</ele>
        <time>2016-03-20T15:35:39Z</time>
      </trkpt>
      <trkpt lat="44.84308" lon="-0.51111">
        <ele>14</ele>
        <time>2016-03-20T15:35:44Z</time>
      </trkpt>
      <trkpt lat="44.84302" lon="-0.51104">
        <ele>8</ele>
        <time>2016-03-20T15:35:54Z</time>
      </trkpt>
      <trkpt lat="44.84295" lon="-0.51098">
        <ele>5</ele>
        <time>2016-03-20T15:36:07Z</time>
      </trkpt>
      <trkpt lat="44.84286" lon="-0.51095">
        <ele>11</ele>
        <time>2016-03-20T15:36:16Z</time>
      </trkpt>
      <trkpt lat="44.84283" lon="-0.51084">
        <ele>15</ele>
        <time>2016-03-20T15:36:26Z</time>
      </trkpt>
      <trkpt lat="44.84281" lon="-0.51073">
        <ele>17</ele>
        <time>2016-03-20T15:36:35Z</time>
      </trkpt>
      <trkpt lat="44.8428" lon="-0.51063">
        <ele>16</ele>
        <time>2016-03-20T15:36:41Z</time>
      </trkpt>
      <trkpt lat="44.84279" lon="-0.51051">
        <ele>12</ele>
        <time>2016-03-20T15:36:49Z</time>
      </trkpt>
      <trkpt lat="44.84279" lon="-0.51039">
        <ele>9</ele>
        <time>2016-03-20T15:36:57Z</time>
      </trkpt>
      <trkpt lat="44.84276" lon="-0.51027">
        <ele>6</ele>
        <time>2016-03-20T15:37:05Z</time>
      </trkpt>
      <trkpt lat="44.84273" lon="-0.51017">
        <ele>4</ele>
        <time>2016-03-20T15:37:12Z</time>
      </trkpt>
      <trkpt lat="44.84272" lon="-0.51005">
        <ele>4</ele>
        <time>2016-03-20T15:37:19Z</time>
      </trkpt>
      <trkpt lat="44.8427" lon="-0.50994">
        <ele>5</ele>
        <time>2016-03-20T15:37:26Z</time>
      </trkpt>
      <trkpt lat="44.84269" lon="-0.50982">
        <ele>5</ele>
        <time>2016-03-20T15:37:35Z</time>
      </trkpt>
      <trkpt lat="44.8427" lon="-0.5097">
        <ele>2</ele>
        <time>2016-03-20T15:37:46Z</time>
      </trkpt>
      <trkpt lat="44.84271" lon="-0.50958">
        <ele>65.5</ele>
        <time>2016-03-20T15:37:56Z</time>
      </trkpt>
      <trkpt lat="44.84274" lon="-0.50946">
        <ele>66</ele>
        <time>2016-03-20T15:38:06Z</time>
      </trkpt>
      <trkpt lat="44.84274" lon="-0.50933">
        <ele>2</ele>
        <time>2016-03-20T15:38:16Z</time>
      </trkpt>
      <trkpt lat="44.84276" lon="-0.50922">
        <ele>4</ele>
        <time>2016-03-20T15:38:28Z</time>
      </trkpt>
      <trkpt lat="44.84278" lon="-0.5091">
        <ele>3</ele>
        <time>2016-03-20T15:38:38Z</time>
      </trkpt>
      <trkpt lat="44.84279" lon="-0.50899">
        <ele>3</ele>
        <time>2016-03-20T15:38:46Z</time>
      </trkpt>
      <trkpt lat="44.8428" lon="-0.50887">
        <ele>3</ele>
        <time>2016-03-20T15:38:54Z</time>
      </trkpt>
      <trkpt lat="44.84282" lon="-0.50875">
        <ele>3</ele>
        <time>2016-03-20T15:39:03Z</time>
      </trkpt>
      <trkpt lat="44.84285" lon="-0.50864">
        <ele>3</ele>
        <time>2016-03-20T15:39:12Z</time>
      </trkpt>
      <trkpt lat="44.84284" lon="-0.50852">
        <ele>3</ele>
        <time>2016-03-20T15:39:19Z</time>
      </trkpt>
      <trkpt lat="44.84287" lon="-0.50841">
        <ele>4</ele>
        <time>2016-03-20T15:39:30Z</time>
      </trkpt>
      <trkpt lat="44.84289" lon="-0.50828">
        <ele>5</ele>
        <time>2016-03-20T15:39:39Z</time>
      </trkpt>
      <trkpt lat="44.84288" lon="-0.50817">
        <ele>6</ele>
        <time>2016-03-20T15:39:48Z</time>
      </trkpt>
      <trkpt lat="44.84291" lon="-0.50805">
        <ele>7</ele>
        <time>2016-03-20T15:39:57Z</time>
      </trkpt>
      <trkpt lat="44.84293" lon="-0.50793">
        <ele>7</ele>
        <time>2016-03-20T15:40:06Z</time>
      </trkpt>
      <trkpt lat="44.84293" lon="-0.50782">
        <ele>8</ele>
        <time>2016-03-20T15:40:14Z</time>
      </trkpt>
      <trkpt lat="44.84294" lon="-0.50771">
        <ele>8</ele>
        <time>2016-03-20T15:40:23Z</time>
      </trkpt>
      <trkpt lat="44.84295" lon="-0.50759">
        <ele>10</ele>
        <time>2016-03-20T15:40:31Z</time>
      </trkpt>
      <trkpt lat="44.84297" lon="-0.50748">
        <ele>12</ele>
        <time>2016-03-20T15:40:40Z</time>
      </trkpt>
      <trkpt lat="44.84297" lon="-0.50737">
        <ele>13</ele>
        <time>2016-03-20T15:40:48Z</time>
      </trkpt>
      <trkpt lat="44.84297" lon="-0.50727">
        <ele>13</ele>
        <time>2016-03-20T15:41:23Z</time>
      </trkpt>
      <trkpt lat="44.84291" lon="-0.50719">
        <ele>14</ele>
        <time>2016-03-20T15:41:40Z</time>
      </trkpt>
      <trkpt lat="44.84284" lon="-0.50712">
        <ele>11</ele>
        <time>2016-03-20T15:41:49Z</time>
      </trkpt>
      <trkpt lat="44.84277" lon="-0.50704">
        <ele>7</ele>
        <time>2016-03-20T15:42:00Z</time>
      </trkpt>
      <trkpt lat="44.84269" lon="-0.50699">
        <ele>4</ele>
        <time>2016-03-20T15:42:09Z</time>
      </trkpt>
      <trkpt lat="44.84263" lon="-0.50692">
        <ele>72.5</ele>
        <time>2016-03-20T15:42:16Z</time>
      </trkpt>
      <trkpt lat="44.84255" lon="-0.5069">
        <ele>2</ele>
        <time>2016-03-20T15:42:22Z</time>
      </trkpt>
      <trkpt lat="44.84248" lon="-0.50683">
        <ele>72.4</ele>
        <time>2016-03-20T15:42:30Z</time>
      </trkpt>
      <trkpt lat="44.84239" lon="-0.50683">
        <ele>4</ele>
        <time>2016-03-20T15:42:37Z</time>
      </trkpt>
      <trkpt lat="44.84233" lon="-0.50674">
        <ele>3</ele>
        <time>2016-03-20T15:42:45Z</time>
      </trkpt>
      <trkpt lat="44.84228" lon="-0.50664">
        <ele>5</ele>
        <time>2016-03-20T15:42:52Z</time>
      </trkpt>
      <trkpt lat="44.84221" lon="-0.50659">
        <ele>11</ele>
        <time>2016-03-20T15:43:01Z</time>
      </trkpt>
      <trkpt lat="44.84215" lon="-0.5065">
        <ele>12</ele>
        <time>2016-03-20T15:43:10Z</time>
      </trkpt>
      <trkpt lat="44.84209" lon="-0.50641">
        <ele>14</ele>
        <time>2016-03-20T15:43:19Z</time>
      </trkpt>
      <trkpt lat="44.84204" lon="-0.50631">
        <ele>16</ele>
        <time>2016-03-20T15:43:27Z</time>
      </trkpt>
      <trkpt lat="44.84198" lon="-0.50622">
        <ele>18</ele>
        <time>2016-03-20T15:43:36Z</time>
      </trkpt>
      <trkpt lat="44.84191" lon="-0.50616">
        <ele>19</ele>
        <time>2016-03-20T15:43:44Z</time>
      </trkpt>
      <trkpt lat="44.84183" lon="-0.50611">
        <ele>19</ele>
        <time>2016-03-20T15:43:53Z</time>
      </trkpt>
      <trkpt lat="44.84176" lon="-0.50607">
        <ele>20</ele>
        <time>2016-03-20T15:44:03Z</time>
      </trkpt>
      <trkpt lat="44.84168" lon="-0.5061">
        <ele>18</ele>
        <time>2016-03-20T15:44:11Z</time>
      </trkpt>
      <trkpt lat="44.84162" lon="-0.50618">
        <ele>15</ele>
        <time>2016-03-20T15:44:20Z</time>
      </trkpt>
      <trkpt lat="44.84157" lon="-0.50627">
        <ele>13</ele>
        <time>2016-03-20T15:44:30Z</time>
      </trkpt>
      <trkpt lat="44.84151" lon="-0.50637">
        <ele>11</ele>
        <time>2016-03-20T15:44:40Z</time>
      </trkpt>
      <trkpt lat="44.84148" lon="-0.50647">
        <ele>10</ele>
        <time>2016-03-20T15:44:50Z</time>
      </trkpt>
      <trkpt lat="44.84144" lon="-0.50657">
        <ele>11</ele>
        <time>2016-03-20T15:44:56Z</time>
      </trkpt>
      <trkpt lat="44.84139" lon="-0.50666">
        <ele>11</ele>
        <time>2016-03-20T15:45:02Z</time>
      </trkpt>
      <trkpt lat="44.84135" lon="-0.50676">
        <ele>12</ele>
        <time>2016-03-20T15:45:09Z</time>
      </trkpt>
      <trkpt lat="44.84129" lon="-0.50684">
        <ele>12</ele>
        <time>2016-03-20T15:45:17Z</time>
      </trkpt>
      <trkpt lat="44.84121" lon="-0.5069">
        <ele>11</ele>
        <time>2016-03-20T15:45:27Z</time>
      </trkpt>
      <trkpt lat="44.84115" lon="-0.50696">
        <ele>16</ele>
        <time>2016-03-20T15:47:08Z</time>
      </trkpt>
      <trkpt lat="44.84112" lon="-0.50697">
        <ele>14</ele>
        <time>2016-03-20T15:47:26Z</time>
      </trkpt>
      <trkpt lat="44.84105" lon="-0.50705">
        <ele>15</ele>
        <time>2016-03-20T15:47:30Z</time>
      </trkpt>
      <trkpt lat="44.84096" lon="-0.50709">
        <ele>14</ele>
        <time>2016-03-20T15:47:42Z</time>
      </trkpt>
      <trkpt lat="44.8409" lon="-0.50714">
        <ele>14</ele>
        <time>2016-03-20T15:48:00Z</time>
      </trkpt>
      <trkpt lat="44.84082" lon="-0.50716">
        <ele>10</ele>
        <time>2016-03-20T15:48:08Z</time>
      </trkpt>
      <trkpt lat="44.84074" lon="-0.50721">
        <ele>9</ele>
        <time>2016-03-20T15:48:20Z</time>
      </trkpt>
      <trkpt lat="44.84067" lon="-0.5073">
        <ele>14</ele>
        <time>2016-03-20T15:48:29Z</time>
      </trkpt>
      <trkpt lat="44.84059" lon="-0.50731">
        <ele>11</ele>
        <time>2016-03-20T15:48:45Z</time>
      </trkpt>
      <trkpt lat="44.84051" lon="-0.50728">
        <ele>13</ele>
        <time>2016-03-20T15:48:55Z</time>
      </trkpt>
      <trkpt lat="44.84043" lon="-0.50724">
        <ele>13</ele>
        <time>2016-03-20T15:49:06Z</time>
      </trkpt>
      <trkpt lat="44.84037" lon="-0.50716">
        <ele>13</ele>
        <time>2016-03-20T15:49:15Z</time>
      </trkpt>
      <trkpt lat="44.84029" lon="-0.5071">
        <ele>14</ele>
        <time>2016-03-20T15:49:23Z</time>
      </trkpt>
      <trkpt lat="44.84023" lon="-0.50703">
        <ele>14</ele>
        <time>2016-03-20T15:49:33Z</time>
      </trkpt>
      <trkpt lat="44.84019" lon="-0.50693">
        <ele>15</ele>
        <time>2016-03-20T15:49:40Z</time>
      </trkpt>
      <trkpt lat="44.84014" lon="-0.50684">
        <ele>17</ele>
        <time>2016-03-20T15:49:50Z</time>
      </trkpt>
      <trkpt lat="44.8401" lon="-0.50673">
        <ele>18</ele>
        <time>2016-03-20T15:49:59Z</time>
      </trkpt>
      <trkpt lat="44.84007" lon="-0.50662">
        <ele>18</ele>
        <time>2016-03-20T15:50:07Z</time>
      </trkpt>
      <trkpt lat="44.84002" lon="-0.50652">
        <ele>16</ele>
        <time>2016-03-20T15:50:16Z</time>
      </trkpt>
      <trkpt lat="44.83997" lon="-0.50642">
        <ele>16</ele>
        <time>2016-03-20T15:50:24Z</time>
      </trkpt>
      <trkpt lat="44.83991" lon="-0.50633">
        <ele>15</ele>
        <time>2016-03-20T15:50:33Z</time>
      </trkpt>
      <trkpt lat="44.83985" lon="-0.50625">
        <ele>15</ele>
        <time>2016-03-20T15:50:41Z</time>
      </trkpt>
      <trkpt lat="44.83978" lon="-0.50618">
        <ele>15</ele>
        <time>2016-03-20T15:50:50Z</time>
      </trkpt>
      <trkpt lat="44.8397" lon="-0.50611">
        <ele>14</ele>
        <time>2016-03-20T15:51:00Z</time>
      </trkpt>
      <trkpt lat="44.83963" lon="-0.50607">
        <ele>11</ele>
        <time>2016-03-20T15:51:18Z</time>
      </trkpt>
      <trkpt lat="44.83955" lon="-0.50601">
        <ele>9</ele>
        <time>2016-03-20T15:51:29Z</time>
      </trkpt>
      <trkpt lat="44.83948" lon="-0.50595">
        <ele>9</ele>
        <time>2016-03-20T15:51:38Z</time>
      </trkpt>
      <trkpt lat="44.83939" lon="-0.50592">
        <ele>10</ele>
        <time>2016-03-20T15:51:47Z</time>
      </trkpt>
      <trkpt lat="44.83931" lon="-0.50591">
        <ele>10</ele>
        <time>2016-03-20T15:51:56Z</time>
      </trkpt>
      <trkpt lat="44.83922" lon="-0.50592">
        <ele>10</ele>
        <time>2016-03-20T15:52:05Z</time>
      </trkpt>
      <trkpt lat="44.83913" lon="-0.50591">
        <ele>5</ele>
        <time>2016-03-20T15:52:21Z</time>
      </trkpt>
      <trkpt lat="44.83905" lon="-0.50593">
        <ele>5</ele>
        <time>2016-03-20T15:52:31Z</time>
      </trkpt>
      <trkpt lat="44.83896" lon="-0.50589">
        <ele>1</ele>
        <time>2016-03-20T15:52:44Z</time>
      </trkpt>
      <trkpt lat="44.83887" lon="-0.5059">
        <ele>1</ele>
        <time>2016-03-20T15:52:53Z</time>
      </trkpt>
      <trkpt lat="44.83879" lon="-0.50592">
        <ele>5</ele>
        <time>2016-03-20T15:52:59Z</time>
      </trkpt>
      <trkpt lat="44.83871" lon="-0.50589">
        <ele>5</ele>
        <time>2016-03-20T15:53:08Z</time>
      </trkpt>
      <trkpt lat="44.83863" lon="-0.50586">
        <ele>5</ele>
        <time>2016-03-20T15:53:16Z</time>
      </trkpt>
      <trkpt lat="44.83854" lon="-0.50584">
        <ele>6</ele>
        <time>2016-03-20T15:53:24Z</time>
      </trkpt>
      <trkpt lat="44.83846" lon="-0.5058">
        <ele>6</ele>
        <time>2016-03-20T15:53:32Z</time>
      </trkpt>
      <trkpt lat="44.83838" lon="-0.50575">
        <ele>8</ele>
        <time>2016-03-20T15:53:42Z</time>
      </trkpt>
      <trkpt lat="44.83832" lon="-0.50567">
        <ele>9</ele>
        <time>2016-03-20T15:53:52Z</time>
      </trkpt>
      <trkpt lat="44.83828" lon="-0.50556">
        <ele>9</ele>
        <time>2016-03-20T15:54:03Z</time>
      </trkpt>
      <trkpt lat="44.83823" lon="-0.50546">
        <ele>10</ele>
        <time>2016-03-20T15:54:14Z</time>
      </trkpt>
      <trkpt lat="44.83822" lon="-0.50534">
        <ele>9</ele>
        <time>2016-03-20T15:54:24Z</time>
      </trkpt>
      <trkpt lat="44.8382" lon="-0.50522">
        <ele>10</ele>
        <time>2016-03-20T15:54:37Z</time>
      </trkpt>
      <trkpt lat="44.83818" lon="-0.50511">
        <ele>10</ele>
        <time>2016-03-20T15:54:46Z</time>
      </trkpt>
      <trkpt lat="44.83816" lon="-0.50499">
        <ele>10</ele>
        <time>2016-03-20T15:54:55Z</time>
      </trkpt>
      <trkpt lat="44.83811" lon="-0.50488">
        <ele>11</ele>
        <time>2016-03-20T15:55:03Z</time>
      </trkpt>
      <trkpt lat="44.83807" lon="-0.50479">
        <ele>9</ele>
        <time>2016-03-20T15:55:11Z</time>
      </trkpt>
      <trkpt lat="44.83803" lon="-0.50468">
        <ele>9</ele>
        <time>2016-03-20T15:55:22Z</time>
      </trkpt>
      <trkpt lat="44.83799" lon="-0.50459">
        <ele>10</ele>
        <time>2016-03-20T15:55:31Z</time>
      </trkpt>
      <trkpt lat="44.83794" lon="-0.5045">
        <ele>11</ele>
        <time>2016-03-20T15:55:38Z</time>
      </trkpt>
      <trkpt lat="44.83788" lon="-0.50441">
        <ele>10</ele>
        <time>2016-03-20T15:55:47Z</time>
      </trkpt>
      <trkpt lat="44.83782" lon="-0.50434">
        <ele>12</ele>
        <time>2016-03-20T15:55:54Z</time>
      </trkpt>
      <trkpt lat="44.83775" lon="-0.50428">
        <ele>11</ele>
        <time>2016-03-20T15:56:03Z</time>
      </trkpt>
      <trkpt lat="44.83769" lon="-0.50419">
        <ele>14</ele>
        <time>2016-03-20T15:56:11Z</time>
      </trkpt>
      <trkpt lat="44.83763" lon="-0.5041">
        <ele>11</ele>
        <time>2016-03-20T15:56:21Z</time>
      </trkpt>
      <trkpt lat="44.83756" lon="-0.50403">
        <ele>8</ele>
        <time>2016-03-20T15:56:32Z</time>
      </trkpt>
      <trkpt lat="44.83751" lon="-0.50394">
        <ele>7</ele>
        <time>2016-03-20T15:56:41Z</time>
      </trkpt>
      <trkpt lat="44.83745" lon="-0.50385">
        <ele>6</ele>
        <time>2016-03-20T15:56:50Z</time>
      </trkpt>
      <trkpt lat="44.83738" lon="-0.50378">
        <ele>5</ele>
        <time>2016-03-20T15:57:01Z</time>
      </trkpt>
      <trkpt lat="44.83732" lon="-0.5037">
        <ele>6</ele>
        <time>2016-03-20T15:57:13Z</time>
      </trkpt>
      <trkpt lat="44.83726" lon="-0.50361">
        <ele>7</ele>
        <time>2016-03-20T15:57:23Z</time>
      </trkpt>
      <trkpt lat="44.83721" lon="-0.50351">
        <ele>9</ele>
        <time>2016-03-20T15:57:31Z</time>
      </trkpt>
      <trkpt lat="44.83716" lon="-0.50341">
        <ele>8</ele>
        <time>2016-03-20T15:57:41Z</time>
      </trkpt>
      <trkpt lat="44.83711" lon="-0.50332">
        <ele>7</ele>
        <time>2016-03-20T15:57:50Z</time>
      </trkpt>
      <trkpt lat="44.83705" lon="-0.50322">
        <ele>8</ele>
        <time>2016-03-20T15:57:59Z</time>
      </trkpt>
      <trkpt lat="44.837" lon="-0.50313">
        <ele>9</ele>
        <time>2016-03-20T15:58:07Z</time>
      </trkpt>
      <trkpt lat="44.83694" lon="-0.50304">
        <ele>10</ele>
        <time>2016-03-20T15:58:17Z</time>
      </trkpt>
      <trkpt lat="44.83688" lon="-0.50296">
        <ele>11</ele>
        <time>2016-03-20T15:58:25Z</time>
      </trkpt>
      <trkpt lat="44.83682" lon="-0.50286">
        <ele>10</ele>
        <time>2016-03-20T15:58:34Z</time>
      </trkpt>
      <trkpt lat="44.83674" lon="-0.50282">
        <ele>10</ele>
        <time>2016-03-20T15:58:43Z</time>
      </trkpt>
      <trkpt lat="44.83666" lon="-0.50278">
        <ele>8</ele>
        <time>2016-03-20T15:58:51Z</time>
      </trkpt>
      <trkpt lat="44.83659" lon="-0.50276">
        <ele>6</ele>
        <time>2016-03-20T15:59:00Z</time>
      </trkpt>
      <trkpt lat="44.8365" lon="-0.50274">
        <ele>10</ele>
        <time>2016-03-20T15:59:08Z</time>
      </trkpt>
      <trkpt lat="44.83648" lon="-0.50263">
        <ele>10</ele>
        <time>2016-03-20T15:59:24Z</time>
      </trkpt>
      <trkpt lat="44.83646" lon="-0.50251">
        <ele>9</ele>
        <time>2016-03-20T15:59:32Z</time>
      </trkpt>
      <trkpt lat="44.83648" lon="-0.5024">
        <ele>10</ele>
        <time>2016-03-20T15:59:40Z</time>
      </trkpt>
      <trkpt lat="44.8365" lon="-0.50228">
        <ele>10</ele>
        <time>2016-03-20T15:59:50Z</time>
      </trkpt>
      <trkpt lat="44.83652" lon="-0.50216">
        <ele>9</ele>
        <time>2016-03-20T15:59:56Z</time>
      </trkpt>
      <trkpt lat="44.83655" lon="-0.50205">
        <ele>9</ele>
        <time>2016-03-20T16:00:05Z</time>
      </trkpt>
      <trkpt lat="44.83656" lon="-0.50193">
        <ele>10</ele>
        <time>2016-03-20T16:00:14Z</time>
      </trkpt>
      <trkpt lat="44.83655" lon="-0.50181">
        <ele>11</ele>
        <time>2016-03-20T16:00:24Z</time>
      </trkpt>
      <trkpt lat="44.83647" lon="-0.50176">
        <ele>10</ele>
        <time>2016-03-20T16:00:36Z</time>
      </trkpt>
      <trkpt lat="44.83639" lon="-0.50171">
        <ele>12</ele>
        <time>2016-03-20T16:00:45Z</time>
      </trkpt>
      <trkpt lat="44.83631" lon="-0.50168">
        <ele>15</ele>
        <time>2016-03-20T16:00:54Z</time>
      </trkpt>
      <trkpt lat="44.83622" lon="-0.50164">
        <ele>13</ele>
        <time>2016-03-20T16:01:06Z</time>
      </trkpt>
      <trkpt lat="44.83616" lon="-0.50156">
        <ele>13</ele>
        <time>2016-03-20T16:01:18Z</time>
      </trkpt>
      <trkpt lat="44.83609" lon="-0.50148">
        <ele>9</ele>
        <time>2016-03-20T16:01:30Z</time>
      </trkpt>
      <trkpt lat="44.83605" lon="-0.50137">
        <ele>9</ele>
        <time>2016-03-20T16:01:39Z</time>
      </trkpt>
      <trkpt lat="44.83598" lon="-0.5013">
        <ele>8</ele>
        <time>2016-03-20T16:01:52Z</time>
      </trkpt>
      <trkpt lat="44.8359" lon="-0.50133">
        <ele>9</ele>
        <time>2016-03-20T16:02:04Z</time>
      </trkpt>
      <trkpt lat="44.83583" lon="-0.50138">
        <ele>10</ele>
        <time>2016-03-20T16:02:17Z</time>
      </trkpt>
      <trkpt lat="44.83576" lon="-0.50145">
        <ele>10</ele>
        <time>2016-03-20T16:02:27Z</time>
      </trkpt>
      <trkpt lat="44.8357" lon="-0.50154">
        <ele>9</ele>
        <time>2016-03-20T16:02:40Z</time>
      </trkpt>
      <trkpt lat="44.83564" lon="-0.50162">
        <ele>11</ele>
        <time>2016-03-20T16:02:50Z</time>
      </trkpt>
      <trkpt lat="44.83556" lon="-0.50168">
        <ele>9</ele>
        <time>2016-03-20T16:03:01Z</time>
      </trkpt>
      <trkpt lat="44.83547" lon="-0.50172">
        <ele>9</ele>
        <time>2016-03-20T16:03:13Z</time>
      </trkpt>
      <trkpt lat="44.83541" lon="-0.50179">
        <ele>4</ele>
        <time>2016-03-20T16:03:32Z</time>
      </trkpt>
      <trkpt lat="44.83534" lon="-0.50184">
        <ele>2</ele>
        <time>2016-03-20T16:03:36Z</time>
      </trkpt>
      <trkpt lat="44.83527" lon="-0.50177">
        <ele>4</ele>
        <time>2016-03-20T16:03:42Z</time>
      </trkpt>
      <trkpt lat="44.83522" lon="-0.50187">
        <ele>5</ele>
        <time>2016-03-20T16:03:57Z</time>
      </trkpt>
      <trkpt lat="44.83517" lon="-0.50197">
        <ele>7</ele>
        <time>2016-03-20T16:04:06Z</time>
      </trkpt>
      <trkpt lat="44.83511" lon="-0.50205">
        <ele>8</ele>
        <time>2016-03-20T16:04:15Z</time>
      </trkpt>
      <trkpt lat="44.83503" lon="-0.50209">
        <ele>10</ele>
        <time>2016-03-20T16:04:23Z</time>
      </trkpt>
      <trkpt lat="44.83494" lon="-0.50211">
        <ele>4</ele>
        <time>2016-03-20T16:04:59Z</time>
      </trkpt>
      <trkpt lat="44.83487" lon="-0.50216">
        <ele>-6</ele>
        <time>2016-03-20T16:05:20Z</time>
      </trkpt>
      <trkpt lat="44.83479" lon="-0.50222">
        <ele>-6</ele>
        <time>2016-03-20T16:05:28Z</time>
      </trkpt>
      <trkpt lat="44.83473" lon="-0.5023">
        <ele>-7</ele>
        <time>2016-03-20T16:05:34Z</time>
      </trkpt>
      <trkpt lat="44.83467" lon="-0.50238">
        <ele>-4</ele>
        <time>2016-03-20T16:05:41Z</time>
      </trkpt>
      <trkpt lat="44.8346" lon="-0.50244">
        <ele>1</ele>
        <time>2016-03-20T16:05:47Z</time>
      </trkpt>
      <trkpt lat="44.83453" lon="-0.50252">
        <ele>7</ele>
        <time>2016-03-20T16:05:56Z</time>
      </trkpt>
      <trkpt lat="44.83447" lon="-0.5026">
        <ele>10</ele>
        <time>2016-03-20T16:06:04Z</time>
      </trkpt>
      <trkpt lat="44.8344" lon="-0.50268">
        <ele>10</ele>
        <time>2016-03-20T16:06:14Z</time>
      </trkpt>
      <trkpt lat="44.83434" lon="-0.50276">
        <ele>9</ele>
        <time>2016-03-20T16:06:24Z</time>
      </trkpt>
      <trkpt lat="44.83427" lon="-0.50284">
        <ele>9</ele>
        <time>2016-03-20T16:06:33Z</time>
      </trkpt>
      <trkpt lat="44.8342" lon="-0.5029">
        <ele>11</ele>
        <time>2016-03-20T16:06:41Z</time>
      </trkpt>
      <trkpt lat="44.83413" lon="-0.50297">
        <ele>14</ele>
        <time>2016-03-20T16:06:50Z</time>
      </trkpt>
      <trkpt lat="44.83406" lon="-0.50303">
        <ele>14</ele>
        <time>2016-03-20T16:07:00Z</time>
      </trkpt>
      <trkpt lat="44.83399" lon="-0.50309">
        <ele>13</ele>
        <time>2016-03-20T16:07:09Z</time>
      </trkpt>
      <trkpt lat="44.83391" lon="-0.50315">
        <ele>12</ele>
        <time>2016-03-20T16:07:19Z</time>
      </trkpt>
      <trkpt lat="44.83383" lon="-0.50321">
        <ele>14</ele>
        <time>2016-03-20T16:07:27Z</time>
      </trkpt>
      <trkpt lat="44.8338" lon="-0.50328">
        <ele>12</ele>
        <time>2016-03-20T16:07:42Z</time>
      </trkpt>
      <trkpt lat="44.83373" lon="-0.50335">
        <ele>12</ele>
        <time>2016-03-20T16:07:56Z</time>
      </trkpt>
      <trkpt lat="44.83365" lon="-0.50339">
        <ele>14</ele>
        <time>2016-03-20T16:08:09Z</time>
      </trkpt>
      <trkpt lat="44.83357" lon="-0.50343">
        <ele>13</ele>
        <time>2016-03-20T16:08:22Z</time>
      </trkpt>
      <trkpt lat="44.83348" lon="-0.50345">
        <ele>12</ele>
        <time>2016-03-20T16:08:33Z</time>
      </trkpt>
      <trkpt lat="44.8334" lon="-0.50348">
        <ele>13</ele>
        <time>2016-03-20T16:08:44Z</time>
      </trkpt>
      <trkpt lat="44.83333" lon="-0.50355">
        <ele>9</ele>
        <time>2016-03-20T16:08:53Z</time>
      </trkpt>
      <trkpt lat="44.83326" lon="-0.50362">
        <ele>6</ele>
        <time>2016-03-20T16:09:07Z</time>
      </trkpt>
      <trkpt lat="44.8332" lon="-0.50371">
        <ele>5</ele>
        <time>2016-03-20T16:09:17Z</time>
      </trkpt>
      <trkpt lat="44.83313" lon="-0.50379">
        <ele>5</ele>
        <time>2016-03-20T16:09:27Z</time>
      </trkpt>
      <trkpt lat="44.83307" lon="-0.50387">
        <ele>4</ele>
        <time>2016-03-20T16:09:35Z</time>
      </trkpt>
      <trkpt lat="44.83301" lon="-0.50396">
        <ele>7</ele>
        <time>2016-03-20T16:09:44Z</time>
      </trkpt>
      <trkpt lat="44.83295" lon="-0.50404">
        <ele>10</ele>
        <time>2016-03-20T16:09:51Z</time>
      </trkpt>
      <trkpt lat="44.83293" lon="-0.50416">
        <ele>9</ele>
        <time>2016-03-20T16:10:03Z</time>
      </trkpt>
      <trkpt lat="44.83289" lon="-0.50427">
        <ele>8</ele>
        <time>2016-03-20T16:10:12Z</time>
      </trkpt>
      <trkpt lat="44.83288" lon="-0.50439">
        <ele>6</ele>
        <time>2016-03-20T16:10:24Z</time>
      </trkpt>
      <trkpt lat="44.83284" lon="-0.50449">
        <ele>9</ele>
        <time>2016-03-20T16:10:29Z</time>
      </trkpt>
      <trkpt lat="44.83281" lon="-0.5046">
        <ele>10</ele>
        <time>2016-03-20T16:10:37Z</time>
      </trkpt>
      <trkpt lat="44.83277" lon="-0.50471">
        <ele>9</ele>
        <time>2016-03-20T16:10:48Z</time>
      </trkpt>
      <trkpt lat="44.83273" lon="-0.50481">
        <ele>11</ele>
        <time>2016-03-20T16:10:55Z</time>
      </trkpt>
      <trkpt lat="44.83268" lon="-0.50489">
        <ele>13</ele>
        <time>2016-03-20T16:11:01Z</time>
      </trkpt>
      <trkpt lat="44.83263" lon="-0.50499">
        <ele>14</ele>
        <time>2016-03-20T16:11:10Z</time>
      </trkpt>
      <trkpt lat="44.83258" lon="-0.50508">
        <ele>15</ele>
        <time>2016-03-20T16:11:18Z</time>
      </trkpt>
      <trkpt lat="44.83254" lon="-0.50518">
        <ele>15</ele>
        <time>2016-03-20T16:11:27Z</time>
      </trkpt>
      <trkpt lat="44.8325" lon="-0.50529">
        <ele>12</ele>
        <time>2016-03-20T16:11:37Z</time>
      </trkpt>
      <trkpt lat="44.83246" lon="-0.50539">
        <ele>11</ele>
        <time>2016-03-20T16:11:46Z</time>
      </trkpt>
      <trkpt lat="44.83245" lon="-0.50551">
        <ele>12</ele>
        <time>2016-03-20T16:11:55Z</time>
      </trkpt>
      <trkpt lat="44.83249" lon="-0.50562">
        <ele>13</ele>
        <time>2016-03-20T16:12:05Z</time>
      </trkpt>
      <trkpt lat="44.83254" lon="-0.50572">
        <ele>10</ele>
        <time>2016-03-20T16:12:18Z</time>
      </trkpt>
      <trkpt lat="44.83261" lon="-0.50579">
        <ele>10</ele>
        <time>2016-03-20T16:12:29Z</time>
      </trkpt>
      <trkpt lat="44.83268" lon="-0.50587">
        <ele>8</ele>
        <time>2016-03-20T16:12:39Z</time>
      </trkpt>
      <trkpt lat="44.83275" lon="-0.50593">
        <ele>6</ele>
        <time>2016-03-20T16:12:47Z</time>
      </trkpt>
      <trkpt lat="44.8328" lon="-0.50603">
        <ele>6</ele>
        <time>2016-03-20T16:12:57Z</time>
      </trkpt>
      <trkpt lat="44.83286" lon="-0.50612">
        <ele>8</ele>
        <time>2016-03-20T16:13:07Z</time>
      </trkpt>
      <trkpt lat="44.83293" lon="-0.50617">
        <ele>11</ele>
        <time>2016-03-20T16:13:16Z</time>
      </trkpt>
      <trkpt lat="44.833" lon="-0.50626">
        <ele>13</ele>
        <time>2016-03-20T16:13:24Z</time>
      </trkpt>
      <trkpt lat="44.83305" lon="-0.50635">
        <ele>13</ele>
        <time>2016-03-20T16:13:37Z</time>
      </trkpt>
      <trkpt lat="44.83309" lon="-0.50646">
        <ele>9</ele>
        <time>2016-03-20T16:13:48Z</time>
      </trkpt>
      <trkpt lat="44.83315" lon="-0.50655">
        <ele>6</ele>
        <time>2016-03-20T16:13:58Z</time>
      </trkpt>
      <trkpt lat="44.8332" lon="-0.50665">
        <ele>4</ele>
        <time>2016-03-20T16:14:09Z</time>
      </trkpt>
      <trkpt lat="44.83326" lon="-0.50674">
        <ele>4</ele>
        <time>2016-03-20T16:14:17Z</time>
      </trkpt>
      <trkpt lat="44.83334" lon="-0.50678">
        <ele>3</ele>
        <time>2016-03-20T16:14:28Z</time>
      </trkpt>
      <trkpt lat="44.83341" lon="-0.50685">
        <ele>1</ele>
        <time>2016-03-20T16:14:40Z</time>
      </trkpt>
      <trkpt lat="44.83344" lon="-0.50696">
        <ele>4</ele>
        <time>2016-03-20T16:14:52Z</time>
      </trkpt>
      <trkpt lat="44.83346" lon="-0.50708">
        <ele>3</ele>
        <time>2016-03-20T16:15:12Z</time>
      </trkpt>
      <trkpt lat="44.83351" lon="-0.50718">
        <ele>4</ele>
        <time>2016-03-20T16:15:21Z</time>
      </trkpt>
      <trkpt lat="44.83355" lon="-0.50729">
        <ele>2</ele>
        <time>2016-03-20T16:15:33Z</time>
      </trkpt>
      <trkpt lat="44.83358" lon="-0.5074">
        <ele>3</ele>
        <time>2016-03-20T16:15:42Z</time>
      </trkpt>
      <trkpt lat="44.83361" lon="-0.50751">
        <ele>4</ele>
        <time>2016-03-20T16:15:51Z</time>
      </trkpt>
      <trkpt lat="44.83362" lon="-0.50764">
        <ele>8</ele>
        <time>2016-03-20T16:16:03Z</time>
      </trkpt>
      <trkpt lat="44.83367" lon="-0.50774">
        <ele>10</ele>
        <time>2016-03-20T16:16:13Z</time>
      </trkpt>
      <trkpt lat="44.83369" lon="-0.50786">
        <ele>5</ele>
        <time>2016-03-20T16:16:26Z</time>
      </trkpt>
      <trkpt lat="44.83371" lon="-0.50798">
        <ele>66.3</ele>
        <time>2016-03-20T16:16:40Z</time>
      </trkpt>
      <trkpt lat="44.83374" lon="-0.5081">
        <ele>66</ele>
        <time>2016-03-20T16:16:51Z</time>
      </trkpt>
      <trkpt lat="44.83381" lon="-0.50813">
        <ele>67.3</ele>
        <time>2016-03-20T16:16:57Z</time>
      </trkpt>
      <trkpt lat="44.8339" lon="-0.50815">
        <ele>68.7</ele>
        <time>2016-03-20T16:17:04Z</time>
      </trkpt>
      <trkpt lat="44.83398" lon="-0.50818">
        <ele>1</ele>
        <time>2016-03-20T16:17:12Z</time>
      </trkpt>
      <trkpt lat="44.83402" lon="-0.50817">
        <ele>2</ele>
        <time>2016-03-20T16:17:25Z</time>
      </trkpt>
      <trkpt lat="44.83411" lon="-0.50815">
        <ele>5</ele>
        <time>2016-03-20T16:17:30Z</time>
      </trkpt>
      <trkpt lat="44.83419" lon="-0.50817">
        <ele>5</ele>
        <time>2016-03-20T16:17:36Z</time>
      </trkpt>
      <trkpt lat="44.83428" lon="-0.50817">
        <ele>8</ele>
        <time>2016-03-20T16:17:41Z</time>
      </trkpt>
      <trkpt lat="44.83437" lon="-0.50815">
        <ele>13</ele>
        <time>2016-03-20T16:17:57Z</time>
      </trkpt>
      <trkpt lat="44.83446" lon="-0.50813">
        <ele>14</ele>
        <time>2016-03-20T16:18:09Z</time>
      </trkpt>
      <trkpt lat="44.83454" lon="-0.50809">
        <ele>15</ele>
        <time>2016-03-20T16:18:20Z</time>
      </trkpt>
      <trkpt lat="44.8346" lon="-0.50803">
        <ele>16</ele>
        <time>2016-03-20T16:20:10Z</time>
      </trkpt>
      <trkpt lat="44.83463" lon="-0.50815">
        <ele>13</ele>
        <time>2016-03-20T16:20:20Z</time>
      </trkpt>
      <trkpt lat="44.83464" lon="-0.50821">
        <ele>12</ele>
        <time>2016-03-20T16:20:52Z</time>
      </trkpt>
      <trkpt lat="44.83474" lon="-0.5083">
        <ele>6</ele>
        <time>2016-03-20T16:20:56Z</time>
      </trkpt>
      <trkpt lat="44.83478" lon="-0.50833">
        <ele>6</ele>
        <time>2016-03-20T16:21:15Z</time>
      </trkpt>
      <trkpt lat="44.83484" lon="-0.50843">
        <ele>8</ele>
        <time>2016-03-20T16:21:19Z</time>
      </trkpt>
      <trkpt lat="44.83492" lon="-0.50846">
        <ele>7</ele>
        <time>2016-03-20T16:21:27Z</time>
      </trkpt>
      <trkpt lat="44.83499" lon="-0.50852">
        <ele>9</ele>
        <time>2016-03-20T16:21:36Z</time>
      </trkpt>
      <trkpt lat="44.83507" lon="-0.50857">
        <ele>9</ele>
        <time>2016-03-20T16:21:45Z</time>
      </trkpt>
      <trkpt lat="44.8351" lon="-0.50861">
        <ele>10</ele>
        <time>2016-03-20T16:22:23Z</time>
      </trkpt>
      <trkpt lat="44.8352" lon="-0.50867">
        <ele>9</ele>
        <time>2016-03-20T16:22:28Z</time>
      </trkpt>
      <trkpt lat="44.83529" lon="-0.50865">
        <ele>8</ele>
        <time>2016-03-20T16:22:39Z</time>
      </trkpt>
      <trkpt lat="44.83536" lon="-0.50864">
        <ele>9</ele>
        <time>2016-03-20T16:22:47Z</time>
      </trkpt>
      <trkpt lat="44.83545" lon="-0.50867">
        <ele>12</ele>
        <time>2016-03-20T16:22:59Z</time>
      </trkpt>
      <trkpt lat="44.83553" lon="-0.50871">
        <ele>10</ele>
        <time>2016-03-20T16:23:14Z</time>
      </trkpt>
      <trkpt lat="44.83562" lon="-0.5087">
        <ele>8</ele>
        <time>2016-03-20T16:23:26Z</time>
      </trkpt>
      <trkpt lat="44.83569" lon="-0.50875">
        <ele>6</ele>
        <time>2016-03-20T16:23:40Z</time>
      </trkpt>
      <trkpt lat="44.83574" lon="-0.50886">
        <ele>4</ele>
        <time>2016-03-20T16:23:50Z</time>
      </trkpt>
      <trkpt lat="44.83578" lon="-0.50896">
        <ele>1</ele>
        <time>2016-03-20T16:24:03Z</time>
      </trkpt>
      <trkpt lat="44.83581" lon="-0.50908">
        <ele>63.2</ele>
        <time>2016-03-20T16:24:13Z</time>
      </trkpt>
      <trkpt lat="44.83586" lon="-0.50917">
        <ele>-3</ele>
        <time>2016-03-20T16:24:27Z</time>
      </trkpt>
      <trkpt lat="44.83595" lon="-0.50919">
        <ele>62.9</ele>
        <time>2016-03-20T16:24:43Z</time>
      </trkpt>
      <trkpt lat="44.836" lon="-0.50922">
        <ele>62.8</ele>
        <time>2016-03-20T16:24:56Z</time>
      </trkpt>
      <trkpt lat="44.83608" lon="-0.50927">
        <ele>-1</ele>
        <time>2016-03-20T16:25:03Z</time>
      </trkpt>
      <trkpt lat="44.83616" lon="-0.50932">
        <ele>62.1</ele>
        <time>2016-03-20T16:25:11Z</time>
      </trkpt>
      <trkpt lat="44.83624" lon="-0.50935">
        <ele>2</ele>
        <time>2016-03-20T16:25:23Z</time>
      </trkpt>
      <trkpt lat="44.83632" lon="-0.5094">
        <ele>5</ele>
        <time>2016-03-20T16:25:33Z</time>
      </trkpt>
      <trkpt lat="44.8364" lon="-0.50942">
        <ele>5</ele>
        <time>2016-03-20T16:25:42Z</time>
      </trkpt>
      <trkpt lat="44.83649" lon="-0.50942">
        <ele>4</ele>
        <time>2016-03-20T16:25:49Z</time>
      </trkpt>
      <trkpt lat="44.83658" lon="-0.5094">
        <ele>6</ele>
        <time>2016-03-20T16:26:02Z</time>
      </trkpt>
      <trkpt lat="44.83666" lon="-0.50937">
        <ele>6</ele>
        <time>2016-03-20T16:26:10Z</time>
      </trkpt>
      <trkpt lat="44.83673" lon="-0.50931">
        <ele>6</ele>
        <time>2016-03-20T16:26:18Z</time>
      </trkpt>
      <trkpt lat="44.8368" lon="-0.50923">
        <ele>8</ele>
        <time>2016-03-20T16:26:29Z</time>
      </trkpt>
      <trkpt lat="44.83685" lon="-0.50914">
        <ele>7</ele>
        <time>2016-03-20T16:26:41Z</time>
      </trkpt>
      <trkpt lat="44.83688" lon="-0.50903">
        <ele>6</ele>
        <time>2016-03-20T16:26:52Z</time>
      </trkpt>
      <trkpt lat="44.83688" lon="-0.50891">
        <ele>6</ele>
        <time>2016-03-20T16:27:05Z</time>
      </trkpt>
      <trkpt lat="44.83686" lon="-0.50886">
        <ele>5</ele>
        <time>2016-03-20T16:27:25Z</time>
      </trkpt>
      <trkpt lat="44.83687" lon="-0.50871">
        <ele>6</ele>
        <time>2016-03-20T16:27:29Z</time>
      </trkpt>
      <trkpt lat="44.83688" lon="-0.50859">
        <ele>5</ele>
        <time>2016-03-20T16:27:40Z</time>
      </trkpt>
      <trkpt lat="44.83687" lon="-0.50847">
        <ele>4</ele>
        <time>2016-03-20T16:27:51Z</time>
      </trkpt>
      <trkpt lat="44.83686" lon="-0.50837">
        <ele>58.2</ele>
        <time>2016-03-20T16:28:23Z</time>
      </trkpt>
      <trkpt lat="44.83683" lon="-0.50824">
        <ele>-2</ele>
        <time>2016-03-20T16:28:28Z</time>
      </trkpt>
      <trkpt lat="44.8368" lon="-0.50813">
        <ele>59.3</ele>
        <time>2016-03-20T16:28:40Z</time>
      </trkpt>
      <trkpt lat="44.83679" lon="-0.50801">
        <ele>59.6</ele>
        <time>2016-03-20T16:28:50Z</time>
      </trkpt>
      <trkpt lat="44.83676" lon="-0.50789">
        <ele>59.7</ele>
        <time>2016-03-20T16:29:01Z</time>
      </trkpt>
      <trkpt lat="44.83672" lon="-0.50779">
        <ele>59.8</ele>
        <time>2016-03-20T16:29:10Z</time>
      </trkpt>
      <trkpt lat="44.83667" lon="-0.50769">
        <ele>60</ele>
        <time>2016-03-20T16:29:19Z</time>
      </trkpt>
      <trkpt lat="44.83664" lon="-0.50758">
        <ele>-3</ele>
        <time>2016-03-20T16:29:33Z</time>
      </trkpt>
      <trkpt lat="44.83659" lon="-0.50748">
        <ele>-4</ele>
        <time>2016-03-20T16:29:41Z</time>
      </trkpt>
      <trkpt lat="44.83655" lon="-0.50738">
        <ele>-4</ele>
        <time>2016-03-20T16:29:50Z</time>
      </trkpt>
      <trkpt lat="44.83654" lon="-0.50726">
        <ele>-4</ele>
        <time>2016-03-20T16:30:00Z</time>
      </trkpt>
      <trkpt lat="44.83651" lon="-0.50715">
        <ele>-2</ele>
        <time>2016-03-20T16:30:08Z</time>
      </trkpt>
      <trkpt lat="44.83651" lon="-0.50702">
        <ele>-1</ele>
        <time>2016-03-20T16:30:16Z</time>
      </trkpt>
      <trkpt lat="44.83649" lon="-0.5069">
        <ele>61.7</ele>
        <time>2016-03-20T16:30:25Z</time>
      </trkpt>
      <trkpt lat="44.83647" lon="-0.50679">
        <ele>62.1</ele>
        <time>2016-03-20T16:30:34Z</time>
      </trkpt>
      <trkpt lat="44.83642" lon="-0.50669">
        <ele>62.7</ele>
        <time>2016-03-20T16:30:43Z</time>
      </trkpt>
      <trkpt lat="44.83639" lon="-0.50657">
        <ele>-1</ele>
        <time>2016-03-20T16:30:53Z</time>
      </trkpt>
      <trkpt lat="44.83639" lon="-0.50646">
        <ele>64.5</ele>
        <time>2016-03-20T16:31:01Z</time>
      </trkpt>
      <trkpt lat="44.83639" lon="-0.50634">
        <ele>65.2</ele>
        <time>2016-03-20T16:31:11Z</time>
      </trkpt>
      <trkpt lat="44.83637" lon="-0.50623">
        <ele>2</ele>
        <time>2016-03-20T16:31:20Z</time>
      </trkpt>
      <trkpt lat="44.83638" lon="-0.50611">
        <ele>3</ele>
        <time>2016-03-20T16:31:29Z</time>
      </trkpt>
      <trkpt lat="44.83638" lon="-0.50599">
        <ele>4</ele>
        <time>2016-03-20T16:31:40Z</time>
      </trkpt>
      <trkpt lat="44.83642" lon="-0.50587">
        <ele>4</ele>
        <time>2016-03-20T16:31:50Z</time>
      </trkpt>
      <trkpt lat="44.8365" lon="-0.50583">
        <ele>7</ele>
        <time>2016-03-20T16:32:00Z</time>
      </trkpt>
      <trkpt lat="44.83659" lon="-0.50581">
        <ele>8</ele>
        <time>2016-03-20T16:32:12Z</time>
      </trkpt>
      <trkpt lat="44.83667" lon="-0.50579">
        <ele>8</ele>
        <time>2016-03-20T16:32:22Z</time>
      </trkpt>
      <trkpt lat="44.83676" lon="-0.50578">
        <ele>9</ele>
        <time>2016-03-20T16:32:32Z</time>
      </trkpt>
      <trkpt lat="44.83685" lon="-0.50575">
        <ele>9</ele>
        <time>2016-03-20T16:32:44Z</time>
      </trkpt>
      <trkpt lat="44.83692" lon="-0.50569">
        <ele>9</ele>
        <time>2016-03-20T16:32:56Z</time>
      </trkpt>
      <trkpt lat="44.83701" lon="-0.50567">
        <ele>8</ele>
        <time>2016-03-20T16:33:09Z</time>
      </trkpt>
      <trkpt lat="44.83709" lon="-0.50566">
        <ele>8</ele>
        <time>2016-03-20T16:33:19Z</time>
      </trkpt>
      <trkpt lat="44.83718" lon="-0.50565">
        <ele>8</ele>
        <time>2016-03-20T16:33:27Z</time>
      </trkpt>
      <trkpt lat="44.83727" lon="-0.50563">
        <ele>8</ele>
        <time>2016-03-20T16:33:37Z</time>
      </trkpt>
      <trkpt lat="44.83735" lon="-0.50561">
        <ele>7</ele>
        <time>2016-03-20T16:33:49Z</time>
      </trkpt>
      <trkpt lat="44.83744" lon="-0.5056">
        <ele>5</ele>
        <time>2016-03-20T16:34:01Z</time>
      </trkpt>
      <trkpt lat="44.83753" lon="-0.50562">
        <ele>6</ele>
        <time>2016-03-20T16:34:12Z</time>
      </trkpt>
      <trkpt lat="44.83761" lon="-0.50562">
        <ele>6</ele>
        <time>2016-03-20T16:34:23Z</time>
      </trkpt>
      <trkpt lat="44.83769" lon="-0.50561">
        <ele>7</ele>
        <time>2016-03-20T16:34:32Z</time>
      </trkpt>
      <trkpt lat="44.83778" lon="-0.50561">
        <ele>9</ele>
        <time>2016-03-20T16:34:42Z</time>
      </trkpt>
      <trkpt lat="44.83786" lon="-0.50561">
        <ele>10</ele>
        <time>2016-03-20T16:34:52Z</time>
      </trkpt>
      <trkpt lat="44.83795" lon="-0.50562">
        <ele>12</ele>
        <time>2016-03-20T16:35:03Z</time>
      </trkpt>
      <trkpt lat="44.83803" lon="-0.50564">
        <ele>13</ele>
        <time>2016-03-20T16:35:14Z</time>
      </trkpt>
      <trkpt lat="44.83812" lon="-0.50566">
        <ele>13</ele>
        <time>2016-03-20T16:35:25Z</time>
      </trkpt>
      <trkpt lat="44.8382" lon="-0.50562">
        <ele>14</ele>
        <time>2016-03-20T16:35:37Z</time>
      </trkpt>
      <trkpt lat="44.83828" lon="-0.50559">
        <ele>14</ele>
        <time>2016-03-20T16:35:46Z</time>
      </trkpt>
      <trkpt lat="44.83836" lon="-0.50565">
        <ele>9</ele>
        <time>2016-03-20T16:35:58Z</time>
      </trkpt>
      <trkpt lat="44.83841" lon="-0.50574">
        <ele>6</ele>
        <time>2016-03-20T16:36:08Z</time>
      </trkpt>
      <trkpt lat="44.83847" lon="-0.50583">
        <ele>6</ele>
        <time>2016-03-20T16:36:18Z</time>
      </trkpt>
      <trkpt lat="44.83854" lon="-0.5059">
        <ele>6</ele>
        <time>2016-03-20T16:36:30Z</time>
      </trkpt>
      <trkpt lat="44.83863" lon="-0.50592">
        <ele>4</ele>
        <time>2016-03-20T16:36:41Z</time>
      </trkpt>
      <trkpt lat="44.8387" lon="-0.50598">
        <ele>5</ele>
        <time>2016-03-20T16:36:52Z</time>
      </trkpt>
      <trkpt lat="44.83879" lon="-0.50601">
        <ele>7</ele>
        <time>2016-03-20T16:37:03Z</time>
      </trkpt>
      <trkpt lat="44.83887" lon="-0.50603">
        <ele>10</ele>
        <time>2016-03-20T16:37:15Z</time>
      </trkpt>
      <trkpt lat="44.83896" lon="-0.50602">
        <ele>11</ele>
        <time>2016-03-20T16:37:24Z</time>
      </trkpt>
      <trkpt lat="44.83904" lon="-0.50601">
        <ele>13</ele>
        <time>2016-03-20T16:37:34Z</time>
      </trkpt>
      <trkpt lat="44.83912" lon="-0.50598">
        <ele>14</ele>
        <time>2016-03-20T16:37:43Z</time>
      </trkpt>
      <trkpt lat="44.83921" lon="-0.50596">
        <ele>15</ele>
        <time>2016-03-20T16:37:55Z</time>
      </trkpt>
      <trkpt lat="44.83929" lon="-0.50596">
        <ele>18</ele>
        <time>2016-03-20T16:38:09Z</time>
      </trkpt>
      <trkpt lat="44.83937" lon="-0.50593">
        <ele>19</ele>
        <time>2016-03-20T16:38:19Z</time>
      </trkpt>
      <trkpt lat="44.83946" lon="-0.50593">
        <ele>16</ele>
        <time>2016-03-20T16:38:31Z</time>
      </trkpt>
      <trkpt lat="44.83954" lon="-0.50596">
        <ele>14</ele>
        <time>2016-03-20T16:38:42Z</time>
      </trkpt>
      <trkpt lat="44.83963" lon="-0.50601">
        <ele>12</ele>
        <time>2016-03-20T16:38:54Z</time>
      </trkpt>
      <trkpt lat="44.8397" lon="-0.50606">
        <ele>11</ele>
        <time>2016-03-20T16:39:03Z</time>
      </trkpt>
      <trkpt lat="44.83977" lon="-0.50613">
        <ele>12</ele>
        <time>2016-03-20T16:39:14Z</time>
      </trkpt>
      <trkpt lat="44.83984" lon="-0.5062">
        <ele>12</ele>
        <time>2016-03-20T16:39:25Z</time>
      </trkpt>
      <trkpt lat="44.83989" lon="-0.5063">
        <ele>10</ele>
        <time>2016-03-20T16:39:38Z</time>
      </trkpt>
      <trkpt lat="44.83998" lon="-0.50633">
        <ele>11</ele>
        <time>2016-03-20T16:39:50Z</time>
      </trkpt>
      <trkpt lat="44.84005" lon="-0.5064">
        <ele>9</ele>
        <time>2016-03-20T16:40:01Z</time>
      </trkpt>
      <trkpt lat="44.84008" lon="-0.5065">
        <ele>7</ele>
        <time>2016-03-20T16:40:13Z</time>
      </trkpt>
      <trkpt lat="44.84009" lon="-0.50662">
        <ele>6</ele>
        <time>2016-03-20T16:40:21Z</time>
      </trkpt>
      <trkpt lat="44.84014" lon="-0.50672">
        <ele>5</ele>
        <time>2016-03-20T16:40:31Z</time>
      </trkpt>
      <trkpt lat="44.84018" lon="-0.50683">
        <ele>3</ele>
        <time>2016-03-20T16:40:43Z</time>
      </trkpt>
      <trkpt lat="44.84021" lon="-0.50694">
        <ele>4</ele>
        <time>2016-03-20T16:40:53Z</time>
      </trkpt>
      <trkpt lat="44.84029" lon="-0.50701">
        <ele>4</ele>
        <time>2016-03-20T16:41:00Z</time>
      </trkpt>
      <trkpt lat="44.84035" lon="-0.50708">
        <ele>5</ele>
        <time>2016-03-20T16:41:06Z</time>
      </trkpt>
      <trkpt lat="44.84041" lon="-0.50717">
        <ele>5</ele>
        <time>2016-03-20T16:41:14Z</time>
      </trkpt>
      <trkpt lat="44.84047" lon="-0.50723">
        <ele>6</ele>
        <time>2016-03-20T16:41:23Z</time>
      </trkpt>
      <trkpt lat="44.84052" lon="-0.50733">
        <ele>9</ele>
        <time>2016-03-20T16:41:30Z</time>
      </trkpt>
      <trkpt lat="44.84055" lon="-0.50743">
        <ele>10</ele>
        <time>2016-03-20T16:41:43Z</time>
      </trkpt>
      <trkpt lat="44.84062" lon="-0.50752">
        <ele>10</ele>
        <time>2016-03-20T16:41:53Z</time>
      </trkpt>
      <trkpt lat="44.84068" lon="-0.5076">
        <ele>11</ele>
        <time>2016-03-20T16:42:02Z</time>
      </trkpt>
      <trkpt lat="44.84073" lon="-0.50769">
        <ele>11</ele>
        <time>2016-03-20T16:42:12Z</time>
      </trkpt>
      <trkpt lat="44.8408" lon="-0.50777">
        <ele>10</ele>
        <time>2016-03-20T16:42:23Z</time>
      </trkpt>
      <trkpt lat="44.84083" lon="-0.50788">
        <ele>9</ele>
        <time>2016-03-20T16:42:33Z</time>
      </trkpt>
      <trkpt lat="44.84087" lon="-0.50798">
        <ele>8</ele>
        <time>2016-03-20T16:42:41Z</time>
      </trkpt>
      <trkpt lat="44.84092" lon="-0.50808">
        <ele>8</ele>
        <time>2016-03-20T16:42:50Z</time>
      </trkpt>
      <trkpt lat="44.84097" lon="-0.50819">
        <ele>9</ele>
        <time>2016-03-20T16:43:00Z</time>
      </trkpt>
      <trkpt lat="44.84101" lon="-0.50829">
        <ele>10</ele>
        <time>2016-03-20T16:43:10Z</time>
      </trkpt>
      <trkpt lat="44.84107" lon="-0.50839">
        <ele>10</ele>
        <time>2016-03-20T16:43:21Z</time>
      </trkpt>
      <trkpt lat="44.84111" lon="-0.50849">
        <ele>11</ele>
        <time>2016-03-20T16:43:31Z</time>
      </trkpt>
      <trkpt lat="44.84119" lon="-0.50854">
        <ele>9</ele>
        <time>2016-03-20T16:43:42Z</time>
      </trkpt>
      <trkpt lat="44.84126" lon="-0.50861">
        <ele>7</ele>
        <time>2016-03-20T16:43:57Z</time>
      </trkpt>
      <trkpt lat="44.84134" lon="-0.50866">
        <ele>6</ele>
        <time>2016-03-20T16:44:06Z</time>
      </trkpt>
      <trkpt lat="44.8414" lon="-0.50874">
        <ele>5</ele>
        <time>2016-03-20T16:44:18Z</time>
      </trkpt>
      <trkpt lat="44.84148" lon="-0.50878">
        <ele>3</ele>
        <time>2016-03-20T16:44:26Z</time>
      </trkpt>
      <trkpt lat="44.84156" lon="-0.50882">
        <ele>2</ele>
        <time>2016-03-20T16:44:33Z</time>
      </trkpt>
      <trkpt lat="44.84162" lon="-0.50891">
        <ele>6</ele>
        <time>2016-03-20T16:44:41Z</time>
      </trkpt>
      <trkpt lat="44.84169" lon="-0.50898">
        <ele>1</ele>
        <time>2016-03-20T16:44:53Z</time>
      </trkpt>
      <trkpt lat="44.84178" lon="-0.509">
        <ele>3</ele>
        <time>2016-03-20T16:45:00Z</time>
      </trkpt>
      <trkpt lat="44.84187" lon="-0.509">
        <ele>6</ele>
        <time>2016-03-20T16:45:09Z</time>
      </trkpt>
      <trkpt lat="44.84195" lon="-0.50906">
        <ele>7</ele>
        <time>2016-03-20T16:45:19Z</time>
      </trkpt>
      <trkpt lat="44.84201" lon="-0.50915">
        <ele>3</ele>
        <time>2016-03-20T16:45:33Z</time>
      </trkpt>
      <trkpt lat="44.84204" lon="-0.50926">
        <ele>3</ele>
        <time>2016-03-20T16:45:44Z</time>
      </trkpt>
      <trkpt lat="44.84211" lon="-0.50932">
        <ele>4</ele>
        <time>2016-03-20T16:45:52Z</time>
      </trkpt>
      <trkpt lat="44.84219" lon="-0.50936">
        <ele>4</ele>
        <time>2016-03-20T16:45:59Z</time>
      </trkpt>
      <trkpt lat="44.84226" lon="-0.50944">
        <ele>3</ele>
        <time>2016-03-20T16:46:09Z</time>
      </trkpt>
      <trkpt lat="44.84232" lon="-0.50952">
        <ele>1</ele>
        <time>2016-03-20T16:46:19Z</time>
      </trkpt>
      <trkpt lat="44.84239" lon="-0.50959">
        <ele>1</ele>
        <time>2016-03-20T16:46:26Z</time>
      </trkpt>
      <trkpt lat="44.84244" lon="-0.50969">
        <ele>65.6</ele>
        <time>2016-03-20T16:46:35Z</time>
      </trkpt>
      <trkpt lat="44.84249" lon="-0.50977">
        <ele>65</ele>
        <time>2016-03-20T16:46:44Z</time>
      </trkpt>
      <trkpt lat="44.84258" lon="-0.50982">
        <ele>2</ele>
        <time>2016-03-20T16:46:51Z</time>
      </trkpt>
      <trkpt lat="44.84266" lon="-0.50988">
        <ele>4</ele>
        <time>2016-03-20T16:46:57Z</time>
      </trkpt>
      <trkpt lat="44.84272" lon="-0.50995">
        <ele>2</ele>
        <time>2016-03-20T16:47:06Z</time>
      </trkpt>
      <trkpt lat="44.84277" lon="-0.51004">
        <ele>2</ele>
        <time>2016-03-20T16:47:14Z</time>
      </trkpt>
      <trkpt lat="44.84279" lon="-0.51016">
        <ele>63.5</ele>
        <time>2016-03-20T16:47:25Z</time>
      </trkpt>
      <trkpt lat="44.84282" lon="-0.51027">
        <ele>63.3</ele>
        <time>2016-03-20T16:47:36Z</time>
      </trkpt>
      <trkpt lat="44.84284" lon="-0.51039">
        <ele>2</ele>
        <time>2016-03-20T16:47:48Z</time>
      </trkpt>
      <trkpt lat="44.84283" lon="-0.5105">
        <ele>7</ele>
        <time>2016-03-20T16:47:57Z</time>
      </trkpt>
      <trkpt lat="44.84288" lon="-0.51061">
        <ele>7</ele>
        <time>2016-03-20T16:48:05Z</time>
      </trkpt>
      <trkpt lat="44.84292" lon="-0.51072">
        <ele>7</ele>
        <time>2016-03-20T16:48:12Z</time>
      </trkpt>
      <trkpt lat="44.84297" lon="-0.51081">
        <ele>6</ele>
        <time>2016-03-20T16:48:19Z</time>
      </trkpt>
      <trkpt lat="44.843" lon="-0.51092">
        <ele>5</ele>
        <time>2016-03-20T16:48:26Z</time>
      </trkpt>
      <trkpt lat="44.84303" lon="-0.51104">
        <ele>3</ele>
        <time>2016-03-20T16:48:35Z</time>
      </trkpt>
      <trkpt lat="44.84308" lon="-0.51113">
        <ele>64.2</ele>
        <time>2016-03-20T16:48:48Z</time>
      </trkpt>
      <trkpt lat="44.84311" lon="-0.51124">
        <ele>4</ele>
        <time>2016-03-20T16:48:59Z</time>
      </trkpt>
      <trkpt lat="44.84309" lon="-0.51136">
        <ele>11</ele>
        <time>2016-03-20T16:49:13Z</time>
      </trkpt>
      <trkpt lat="44.8431" lon="-0.51148">
        <ele>13</ele>
        <time>2016-03-20T16:49:26Z</time>
      </trkpt>
      <trkpt lat="44.84313" lon="-0.51159">
        <ele>13</ele>
        <time>2016-03-20T16:49:34Z</time>
      </trkpt>
      <trkpt lat="44.84316" lon="-0.5117">
        <ele>11</ele>
        <time>2016-03-20T16:49:43Z</time>
      </trkpt>
      <trkpt lat="44.84319" lon="-0.51182">
        <ele>9</ele>
        <time>2016-03-20T16:49:51Z</time>
      </trkpt>
      <trkpt lat="44.84321" lon="-0.51192">
        <ele>7</ele>
        <time>2016-03-20T16:50:00Z</time>
      </trkpt>
      <trkpt lat="44.84324" lon="-0.51204">
        <ele>3</ele>
        <time>2016-03-20T16:50:09Z</time>
      </trkpt>
      <trkpt lat="44.84326" lon="-0.51216">
        <ele>2</ele>
        <time>2016-03-20T16:50:18Z</time>
      </trkpt>
      <trkpt lat="44.84328" lon="-0.51228">
        <ele>1</ele>
        <time>2016-03-20T16:50:26Z</time>
      </trkpt>
      <trkpt lat="44.84328" lon="-0.5124">
        <ele>6</ele>
        <time>2016-03-20T16:50:34Z</time>
      </trkpt>
      <trkpt lat="44.84332" lon="-0.51252">
        <ele>6</ele>
        <time>2016-03-20T16:50:43Z</time>
      </trkpt>
      <trkpt lat="44.84334" lon="-0.51264">
        <ele>5</ele>
        <time>2016-03-20T16:50:51Z</time>
      </trkpt>
      <trkpt lat="44.84334" lon="-0.51276">
        <ele>1</ele>
        <time>2016-03-20T16:51:00Z</time>
      </trkpt>
      <trkpt lat="44.84332" lon="-0.51287">
        <ele>5</ele>
        <time>2016-03-20T16:51:08Z</time>
      </trkpt>
      <trkpt lat="44.8433" lon="-0.51299">
        <ele>9</ele>
        <time>2016-03-20T16:51:15Z</time>
      </trkpt>
      <trkpt lat="44.84326" lon="-0.5131">
        <ele>14</ele>
        <time>2016-03-20T16:51:20Z</time>
      </trkpt>
      <trkpt lat="44.84324" lon="-0.51321">
        <ele>16</ele>
        <time>2016-03-20T16:51:30Z</time>
      </trkpt>
      <trkpt lat="44.84328" lon="-0.51332">
        <ele>18</ele>
        <time>2016-03-20T16:51:43Z</time>
      </trkpt>
      <trkpt lat="44.8433" lon="-0.51344">
        <ele>16</ele>
        <time>2016-03-20T16:51:55Z</time>
      </trkpt>
      <trkpt lat="44.84329" lon="-0.51355">
        <ele>14</ele>
        <time>2016-03-20T16:52:06Z</time>
      </trkpt>
      <trkpt lat="44.8433" lon="-0.51367">
        <ele>15</ele>
        <time>2016-03-20T16:52:15Z</time>
      </trkpt>
      <trkpt lat="44.84327" lon="-0.51378">
        <ele>13</ele>
        <time>2016-03-20T16:52:20Z</time>
      </trkpt>
      <trkpt lat="44.84324" lon="-0.51391">
        <ele>14</ele>
        <time>2016-03-20T16:52:24Z</time>
      </trkpt>
      <trkpt lat="44.84322" lon="-0.51403">
        <ele>17</ele>
        <time>2016-03-20T16:52:29Z</time>
      </trkpt>
      <trkpt lat="44.84324" lon="-0.51415">
        <ele>17</ele>
        <time>2016-03-20T16:52:40Z</time>
      </trkpt>
      <trkpt lat="44.84325" lon="-0.51427">
        <ele>13</ele>
        <time>2016-03-20T16:52:50Z</time>
      </trkpt>
      <trkpt lat="44.84323" lon="-0.51438">
        <ele>10</ele>
        <time>2016-03-20T16:53:00Z</time>
      </trkpt>
      <trkpt lat="44.84319" lon="-0.51449">
        <ele>9</ele>
        <time>2016-03-20T16:53:11Z</time>
      </trkpt>
      <trkpt lat="44.84316" lon="-0.5146">
        <ele>6</ele>
        <time>2016-03-20T16:53:21Z</time>
      </trkpt>
      <trkpt lat="44.84312" lon="-0.5147">
        <ele>2</ele>
        <time>2016-03-20T16:53:30Z</time>
      </trkpt>
      <trkpt lat="44.84307" lon="-0.51478">
        <ele>68</ele>
        <time>2016-03-20T16:53:40Z</time>
      </trkpt>
      <trkpt lat="44.843" lon="-0.51486">
        <ele>68</ele>
        <time>2016-03-20T16:53:47Z</time>
      </trkpt>
      <trkpt lat="44.84296" lon="-0.51497">
        <ele>-4</ele>
        <time>2016-03-20T16:53:58Z</time>
      </trkpt>
      <trkpt lat="44.84289" lon="-0.51506">
        <ele>1</ele>
        <time>2016-03-20T16:54:06Z</time>
      </trkpt>
      <trkpt lat="44.84284" lon="-0.51516">
        <ele>7</ele>
        <time>2016-03-20T16:54:12Z</time>
      </trkpt>
      <trkpt lat="44.8428" lon="-0.51524">
        <ele>9</ele>
        <time>2016-03-20T16:54:18Z</time>
      </trkpt>
      <trkpt lat="44.84275" lon="-0.51535">
        <ele>11</ele>
        <time>2016-03-20T16:54:23Z</time>
      </trkpt>
      <trkpt lat="44.84271" lon="-0.51545">
        <ele>10</ele>
        <time>2016-03-20T16:54:32Z</time>
      </trkpt>
      <trkpt lat="44.84268" lon="-0.51556">
        <ele>8</ele>
        <time>2016-03-20T16:54:39Z</time>
      </trkpt>
      <trkpt lat="44.84267" lon="-0.51569">
        <ele>4</ele>
        <time>2016-03-20T16:54:50Z</time>
      </trkpt>
      <trkpt lat="44.84266" lon="-0.51581">
        <ele>67</ele>
        <time>2016-03-20T16:55:01Z</time>
      </trkpt>
      <trkpt lat="44.84267" lon="-0.51593">
        <ele>-3</ele>
        <time>2016-03-20T16:55:10Z</time>
      </trkpt>
      <trkpt lat="44.84271" lon="-0.51603">
        <ele>-5</ele>
        <time>2016-03-20T16:55:18Z</time>
      </trkpt>
      <trkpt lat="44.84276" lon="-0.51612">
        <ele>-6</ele>
        <time>2016-03-20T16:55:26Z</time>
      </trkpt>
      <trkpt lat="44.84282" lon="-0.51621">
        <ele>-7</ele>
        <time>2016-03-20T16:55:33Z</time>
      </trkpt>
      <trkpt lat="44.84285" lon="-0.51632">
        <ele>-9</ele>
        <time>2016-03-20T16:55:43Z</time>
      </trkpt>
      <trkpt lat="44.84289" lon="-0.51642">
        <ele>-7</ele>
        <time>2016-03-20T16:55:53Z</time>
      </trkpt>
      <trkpt lat="44.84295" lon="-0.51651">
        <ele>-9</ele>
        <time>2016-03-20T16:56:04Z</time>
      </trkpt>
      <trkpt lat="44.84299" lon="-0.51661">
        <ele>-14</ele>
        <time>2016-03-20T16:56:18Z</time>
      </trkpt>
      <trkpt lat="44.84306" lon="-0.51669">
        <ele>-15</ele>
        <time>2016-03-20T16:56:29Z</time>
      </trkpt>
      <trkpt lat="44.84313" lon="-0.51675">
        <ele>-14</ele>
        <time>2016-03-20T16:56:36Z</time>
      </trkpt>
      <trkpt lat="44.84318" lon="-0.51684">
        <ele>-13</ele>
        <time>2016-03-20T16:56:44Z</time>
      </trkpt>
      <trkpt lat="44.84326" lon="-0.51687">
        <ele>-10</ele>
        <time>2016-03-20T16:56:50Z</time>
      </trkpt>
      <trkpt lat="44.84327" lon="-0.51688">
        <ele>-9</ele>
        <time>2016-03-20T16:57:11Z</time>
      </trkpt>
      <trkpt lat="44.84337" lon="-0.51693">
        <ele>-8</ele>
        <time>2016-03-20T16:57:15Z</time>
      </trkpt>
      <trkpt lat="44.84342" lon="-0.51702">
        <ele>-6</ele>
        <time>2016-03-20T16:57:27Z</time>
      </trkpt>
      <trkpt lat="44.84345" lon="-0.51713">
        <ele>-6</ele>
        <time>2016-03-20T16:57:36Z</time>
      </trkpt>
      <trkpt lat="44.84346" lon="-0.51725">
        <ele>-8</ele>
        <time>2016-03-20T16:57:47Z</time>
      </trkpt>
      <trkpt lat="44.84341" lon="-0.51734">
        <ele>-7</ele>
        <time>2016-03-20T16:57:56Z</time>
      </trkpt>
      <trkpt lat="44.84336" lon="-0.51744">
        <ele>-4</ele>
        <time>2016-03-20T16:58:11Z</time>
      </trkpt>
      <trkpt lat="44.84331" lon="-0.51754">
        <ele>59.3</ele>
        <time>2016-03-20T16:58:25Z</time>
      </trkpt>
      <trkpt lat="44.84325" lon="-0.51763">
        <ele>1</ele>
        <time>2016-03-20T16:58:35Z</time>
      </trkpt>
      <trkpt lat="44.84318" lon="-0.5177">
        <ele>2</ele>
        <time>2016-03-20T16:58:46Z</time>
      </trkpt>
      <trkpt lat="44.8431" lon="-0.51774">
        <ele>2</ele>
        <time>2016-03-20T16:58:55Z</time>
      </trkpt>
      <trkpt lat="44.84302" lon="-0.51778">
        <ele>4</ele>
        <time>2016-03-20T16:59:04Z</time>
      </trkpt>
      <trkpt lat="44.84294" lon="-0.51781">
        <ele>60.8</ele>
        <time>2016-03-20T16:59:14Z</time>
      </trkpt>
      <trkpt lat="44.84288" lon="-0.51788">
        <ele>2</ele>
        <time>2016-03-20T16:59:20Z</time>
      </trkpt>
      <trkpt lat="44.8428" lon="-0.51791">
        <ele>3</ele>
        <time>2016-03-20T16:59:30Z</time>
      </trkpt>
      <trkpt lat="44.84273" lon="-0.51791">
        <ele>-3</ele>
        <time>2016-03-20T16:59:59Z</time>
      </trkpt>
      <trkpt lat="44.8427" lon="-0.51795">
        <ele>62.4</ele>
        <time>2016-03-20T17:00:24Z</time>
      </trkpt>
      <trkpt lat="44.84267" lon="-0.51808">
        <ele>-10</ele>
        <time>2016-03-20T17:00:29Z</time>
      </trkpt>
      <trkpt lat="44.84258" lon="-0.51814">
        <ele>-3</ele>
        <time>2016-03-20T17:00:33Z</time>
      </trkpt>
      <trkpt lat="44.84251" lon="-0.51821">
        <ele>-3</ele>
        <time>2016-03-20T17:00:46Z</time>
      </trkpt>
      <trkpt lat="44.84247" lon="-0.51831">
        <ele>-4</ele>
        <time>2016-03-20T17:00:51Z</time>
      </trkpt>
      <trkpt lat="44.84242" lon="-0.51842">
        <ele>-1</ele>
        <time>2016-03-20T17:00:57Z</time>
      </trkpt>
      <trkpt lat="44.84236" lon="-0.51849">
        <ele>63</ele>
        <time>2016-03-20T17:01:05Z</time>
      </trkpt>
      <trkpt lat="44.8423" lon="-0.51857">
        <ele>8</ele>
        <time>2016-03-20T17:01:15Z</time>
      </trkpt>
      <trkpt lat="44.84228" lon="-0.51859">
        <ele>8</ele>
        <time>2016-03-20T17:01:34Z</time>
      </trkpt>
      <trkpt lat="44.84224" lon="-0.51873">
        <ele>7</ele>
        <time>2016-03-20T17:01:38Z</time>
      </trkpt>
      <trkpt lat="44.8422" lon="-0.51883">
        <ele>63.4</ele>
        <time>2016-03-20T17:01:48Z</time>
      </trkpt>
      <trkpt lat="44.84215" lon="-0.51893">
        <ele>2</ele>
        <time>2016-03-20T17:01:55Z</time>
      </trkpt>
      <trkpt lat="44.84211" lon="-0.51904">
        <ele>64.1</ele>
        <time>2016-03-20T17:02:06Z</time>
      </trkpt>
      <trkpt lat="44.84208" lon="-0.51915">
        <ele>-3</ele>
        <time>2016-03-20T17:02:14Z</time>
      </trkpt>
      <trkpt lat="44.84206" lon="-0.51926">
        <ele>-3</ele>
        <time>2016-03-20T17:02:19Z</time>
      </trkpt>
      <trkpt lat="44.84204" lon="-0.51938">
        <ele>-3</ele>
        <time>2016-03-20T17:02:24Z</time>
      </trkpt>
      <trkpt lat="44.84203" lon="-0.5195">
        <ele>-4</ele>
        <time>2016-03-20T17:02:32Z</time>
      </trkpt>
      <trkpt lat="44.84206" lon="-0.51962">
        <ele>-5</ele>
        <time>2016-03-20T17:02:42Z</time>
      </trkpt>
      <trkpt lat="44.84209" lon="-0.51973">
        <ele>-5</ele>
        <time>2016-03-20T17:02:51Z</time>
      </trkpt>
      <trkpt lat="44.84211" lon="-0.51985">
        <ele>-2</ele>
        <time>2016-03-20T17:03:01Z</time>
      </trkpt>
      <trkpt lat="44.84209" lon="-0.51997">
        <ele>-1</ele>
        <time>2016-03-20T17:03:08Z</time>
      </trkpt>
      <trkpt lat="44.84211" lon="-0.52008">
        <ele>65.8</ele>
        <time>2016-03-20T17:03:19Z</time>
      </trkpt>
      <trkpt lat="44.84215" lon="-0.52019">
        <ele>65.5</ele>
        <time>2016-03-20T17:03:33Z</time>
      </trkpt>
      <trkpt lat="44.84219" lon="-0.52031">
        <ele>65.1</ele>
        <time>2016-03-20T17:03:41Z</time>
      </trkpt>
      <trkpt lat="44.8422" lon="-0.52043">
        <ele>65.1</ele>
        <time>2016-03-20T17:03:52Z</time>
      </trkpt>
      <trkpt lat="44.84218" lon="-0.52054">
        <ele>65.1</ele>
        <time>2016-03-20T17:04:01Z</time>
      </trkpt>
      <trkpt lat="44.8422" lon="-0.52066">
        <ele>3</ele>
        <time>2016-03-20T17:04:08Z</time>
      </trkpt>
      <trkpt lat="44.84222" lon="-0.52077">
        <ele>3</ele>
        <time>2016-03-20T17:04:16Z</time>
      </trkpt>
      <trkpt lat="44.84226" lon="-0.52086">
        <ele>64.8</ele>
        <time>2016-03-20T17:04:26Z</time>
      </trkpt>
      <trkpt lat="44.8422" lon="-0.521">
        <ele>1</ele>
        <time>2016-03-20T17:04:30Z</time>
      </trkpt>
      <trkpt lat="44.84223" lon="-0.52109">
        <ele>-1</ele>
        <time>2016-03-20T17:04:38Z</time>
      </trkpt>
      <trkpt lat="44.84227" lon="-0.52119">
        <ele>64.3</ele>
        <time>2016-03-20T17:04:44Z</time>
      </trkpt>
      <trkpt lat="44.8423" lon="-0.5213">
        <ele>-2</ele>
        <time>2016-03-20T17:04:52Z</time>
      </trkpt>
      <trkpt lat="44.84235" lon="-0.5214">
        <ele>-2</ele>
        <time>2016-03-20T17:05:03Z</time>
      </trkpt>
      <trkpt lat="44.84233" lon="-0.52152">
        <ele>-4</ele>
        <time>2016-03-20T17:05:12Z</time>
      </trkpt>
      <trkpt lat="44.84232" lon="-0.52164">
        <ele>-2</ele>
        <time>2016-03-20T17:05:17Z</time>
      </trkpt>
      <trkpt lat="44.84235" lon="-0.52174">
        <ele>-2</ele>
        <time>2016-03-20T17:05:24Z</time>
      </trkpt>
      <trkpt lat="44.84237" lon="-0.52185">
        <ele>-3</ele>
        <time>2016-03-20T17:05:32Z</time>
      </trkpt>
      <trkpt lat="44.84239" lon="-0.52198">
        <ele>-4</ele>
        <time>2016-03-20T17:05:40Z</time>
      </trkpt>
      <trkpt lat="44.84241" lon="-0.52209">
        <ele>-4</ele>
        <time>2016-03-20T17:05:48Z</time>
      </trkpt>
      <trkpt lat="44.84243" lon="-0.5222">
        <ele>-6</ele>
        <time>2016-03-20T17:05:55Z</time>
      </trkpt>
      <trkpt lat="44.84241" lon="-0.52231">
        <ele>-6</ele>
        <time>2016-03-20T17:06:02Z</time>
      </trkpt>
      <trkpt lat="44.8424" lon="-0.52242">
        <ele>-4</ele>
        <time>2016-03-20T17:06:08Z</time>
      </trkpt>
      <trkpt lat="44.84235" lon="-0.5225">
        <ele>62.1</ele>
        <time>2016-03-20T17:06:14Z</time>
      </trkpt>
      <trkpt lat="44.8423" lon="-0.5226">
        <ele>62.1</ele>
        <time>2016-03-20T17:06:22Z</time>
      </trkpt>
      <trkpt lat="44.84227" lon="-0.52272">
        <ele>61.9</ele>
        <time>2016-03-20T17:06:32Z</time>
      </trkpt>
      <trkpt lat="44.84218" lon="-0.52276">
        <ele>1</ele>
        <time>2016-03-20T17:06:43Z</time>
      </trkpt>
      <trkpt lat="44.8421" lon="-0.52277">
        <ele>8</ele>
        <time>2016-03-20T17:06:54Z</time>
      </trkpt>
      <trkpt lat="44.84201" lon="-0.52275">
        <ele>9</ele>
        <time>2016-03-20T17:07:06Z</time>
      </trkpt>
      <trkpt lat="44.84194" lon="-0.52273">
        <ele>8</ele>
        <time>2016-03-20T17:07:13Z</time>
      </trkpt>
      <trkpt lat="44.84185" lon="-0.52271">
        <ele>4</ele>
        <time>2016-03-20T17:07:21Z</time>
      </trkpt>
      <trkpt lat="44.84177" lon="-0.52268">
        <ele>2</ele>
        <time>2016-03-20T17:07:28Z</time>
      </trkpt>
      <trkpt lat="44.84169" lon="-0.52262">
        <ele>1</ele>
        <time>2016-03-20T17:07:36Z</time>
      </trkpt>
      <trkpt lat="44.84163" lon="-0.52253">
        <ele>2</ele>
        <time>2016-03-20T17:07:44Z</time>
      </trkpt>
      <trkpt lat="44.84155" lon="-0.52248">
        <ele>4</ele>
        <time>2016-03-20T17:07:51Z</time>
      </trkpt>
      <trkpt lat="44.84147" lon="-0.52245">
        <ele>-1</ele>
        <time>2016-03-20T17:08:01Z</time>
      </trkpt>
      <trkpt lat="44.84139" lon="-0.52241">
        <ele>-2</ele>
        <time>2016-03-20T17:08:09Z</time>
      </trkpt>
      <trkpt lat="44.84131" lon="-0.52237">
        <ele>61</ele>
        <time>2016-03-20T17:08:17Z</time>
      </trkpt>
      <trkpt lat="44.84123" lon="-0.5224">
        <ele>-1</ele>
        <time>2016-03-20T17:08:23Z</time>
      </trkpt>
      <trkpt lat="44.84115" lon="-0.52242">
        <ele>-1</ele>
        <time>2016-03-20T17:08:33Z</time>
      </trkpt>
      <trkpt lat="44.84107" lon="-0.52245">
        <ele>-1</ele>
        <time>2016-03-20T17:08:43Z</time>
      </trkpt>
      <trkpt lat="44.841" lon="-0.52251">
        <ele>-1</ele>
        <time>2016-03-20T17:08:51Z</time>
      </trkpt>
      <trkpt lat="44.84092" lon="-0.52255">
        <ele>-2</ele>
        <time>2016-03-20T17:09:00Z</time>
      </trkpt>
      <trkpt lat="44.8409" lon="-0.52255">
        <ele>-1</ele>
        <time>2016-03-20T17:10:35Z</time>
      </trkpt>
      <trkpt lat="44.8408" lon="-0.52259">
        <ele>-4</ele>
        <time>2016-03-20T17:10:39Z</time>
      </trkpt>
      <trkpt lat="44.8408" lon="-0.52266">
        <ele>-1</ele>
        <time>2016-03-20T17:11:08Z</time>
      </trkpt>
    </trkseg>
  </trk>
</gpx>